<?xml version="1.0" encoding="UTF-8"?>
<gpx xmlns="http://www.topografix.com/GPX/1/1" xmlns:xsi="http://www.w3.org/2001/XMLSchema-instance" version="1.1" xsi:schemaLocation="http://www.topografix.com/GPX/1/1 http://www.topografix.com/GPX/1/1/gpx.xsd">
  <metadata>
    <name>Zoom RedHawk Triathlon Festival 2022 - 1/3 Iron Aquabike</name>
  </metadata>
  <trk>
    <name>Zoom RedHawk Triathlon Festival 2022 - 1/3 Iron Aquabike</name>
    <trkseg>
      <trkpt lat="39.574883" lon="-84.758301">
        <ele>271.235841</ele>
        <time>2024-09-15T07:55:00.000Z</time>
      </trkpt>
      <trkpt lat="39.575114" lon="-84.758422">
        <ele>271.235837</ele>
        <time>2024-09-15T07:55:03.000Z</time>
      </trkpt>
      <trkpt lat="39.575291" lon="-84.758545">
        <ele>271.235841</ele>
        <time>2024-09-15T07:55:05.000Z</time>
      </trkpt>
      <trkpt lat="39.575494" lon="-84.758661">
        <ele>271.235842</ele>
        <time>2024-09-15T07:55:07.000Z</time>
      </trkpt>
      <trkpt lat="39.575715" lon="-84.758774">
        <ele>271.24715</ele>
        <time>2024-09-15T07:55:10.000Z</time>
      </trkpt>
      <trkpt lat="39.575916" lon="-84.758898">
        <ele>272.318042</ele>
        <time>2024-09-15T07:55:12.000Z</time>
      </trkpt>
      <trkpt lat="39.576182" lon="-84.759098">
        <ele>273.800759</ele>
        <time>2024-09-15T07:55:15.000Z</time>
      </trkpt>
      <trkpt lat="39.576283" lon="-84.759688">
        <ele>276.005596</ele>
        <time>2024-09-15T07:55:20.000Z</time>
      </trkpt>
      <trkpt lat="39.576428" lon="-84.760255">
        <ele>278.223446</ele>
        <time>2024-09-15T07:55:25.000Z</time>
      </trkpt>
      <trkpt lat="39.576794" lon="-84.761061">
        <ele>281.448965</ele>
        <time>2024-09-15T07:55:33.000Z</time>
      </trkpt>
      <trkpt lat="39.576867" lon="-84.761324">
        <ele>282.330212</ele>
        <time>2024-09-15T07:55:35.000Z</time>
      </trkpt>
      <trkpt lat="39.576892" lon="-84.76185">
        <ele>284.048431</ele>
        <time>2024-09-15T07:55:40.000Z</time>
      </trkpt>
      <trkpt lat="39.577122" lon="-84.761942">
        <ele>285.070366</ele>
        <time>2024-09-15T07:55:43.000Z</time>
      </trkpt>
      <trkpt lat="39.577359" lon="-84.762448">
        <ele>287.017951</ele>
        <time>2024-09-15T07:55:48.000Z</time>
      </trkpt>
      <trkpt lat="39.577562" lon="-84.763106">
        <ele>287.735984</ele>
        <time>2024-09-15T07:55:54.000Z</time>
      </trkpt>
      <trkpt lat="39.577719" lon="-84.763341">
        <ele>287.891876</ele>
        <time>2024-09-15T07:55:57.000Z</time>
      </trkpt>
      <trkpt lat="39.577952" lon="-84.763517">
        <ele>288.066267</ele>
        <time>2024-09-15T07:56:00.000Z</time>
      </trkpt>
      <trkpt lat="39.57816" lon="-84.763585">
        <ele>288.218919</ele>
        <time>2024-09-15T07:56:02.000Z</time>
      </trkpt>
      <trkpt lat="39.57876" lon="-84.763555">
        <ele>288.616412</ele>
        <time>2024-09-15T07:56:09.000Z</time>
      </trkpt>
      <trkpt lat="39.578964" lon="-84.763839">
        <ele>288.045259</ele>
        <time>2024-09-15T07:56:12.000Z</time>
      </trkpt>
      <trkpt lat="39.579106" lon="-84.764368">
        <ele>287.159742</ele>
        <time>2024-09-15T07:56:17.000Z</time>
      </trkpt>
      <trkpt lat="39.579432" lon="-84.76502">
        <ele>285.863722</ele>
        <time>2024-09-15T07:56:24.000Z</time>
      </trkpt>
      <trkpt lat="39.579576" lon="-84.765442">
        <ele>285.12718</ele>
        <time>2024-09-15T07:56:28.000Z</time>
      </trkpt>
      <trkpt lat="39.57973" lon="-84.765622">
        <ele>284.500056</ele>
        <time>2024-09-15T07:56:30.000Z</time>
      </trkpt>
      <trkpt lat="39.579873" lon="-84.765635">
        <ele>283.67652</ele>
        <time>2024-09-15T07:56:32.000Z</time>
      </trkpt>
      <trkpt lat="39.580106" lon="-84.765464">
        <ele>282.374726</ele>
        <time>2024-09-15T07:56:35.000Z</time>
      </trkpt>
      <trkpt lat="39.580229" lon="-84.765274">
        <ele>281.412076</ele>
        <time>2024-09-15T07:56:37.000Z</time>
      </trkpt>
      <trkpt lat="39.580508" lon="-84.764613">
        <ele>278.380253</ele>
        <time>2024-09-15T07:56:43.000Z</time>
      </trkpt>
      <trkpt lat="39.580644" lon="-84.76444">
        <ele>277.476625</ele>
        <time>2024-09-15T07:56:45.000Z</time>
      </trkpt>
      <trkpt lat="39.580878" lon="-84.764233">
        <ele>275.985072</ele>
        <time>2024-09-15T07:56:48.000Z</time>
      </trkpt>
      <trkpt lat="39.581112" lon="-84.764195">
        <ele>274.796586</ele>
        <time>2024-09-15T07:56:51.000Z</time>
      </trkpt>
      <trkpt lat="39.581338" lon="-84.764252">
        <ele>273.581466</ele>
        <time>2024-09-15T07:56:54.000Z</time>
      </trkpt>
      <trkpt lat="39.581467" lon="-84.764348">
        <ele>272.782264</ele>
        <time>2024-09-15T07:56:56.000Z</time>
      </trkpt>
      <trkpt lat="39.581638" lon="-84.764595">
        <ele>271.475957</ele>
        <time>2024-09-15T07:56:59.000Z</time>
      </trkpt>
      <trkpt lat="39.58193" lon="-84.765079">
        <ele>269.000789</ele>
        <time>2024-09-15T07:57:04.000Z</time>
      </trkpt>
      <trkpt lat="39.582136" lon="-84.765183">
        <ele>267.78417</ele>
        <time>2024-09-15T07:57:06.000Z</time>
      </trkpt>
      <trkpt lat="39.582379" lon="-84.765208">
        <ele>266.515605</ele>
        <time>2024-09-15T07:57:09.000Z</time>
      </trkpt>
      <trkpt lat="39.583065" lon="-84.765078">
        <ele>265.421494</ele>
        <time>2024-09-15T07:57:17.000Z</time>
      </trkpt>
      <trkpt lat="39.58349" lon="-84.765226">
        <ele>264.867966</ele>
        <time>2024-09-15T07:57:22.000Z</time>
      </trkpt>
      <trkpt lat="39.583601" lon="-84.765369">
        <ele>264.664669</ele>
        <time>2024-09-15T07:57:24.000Z</time>
      </trkpt>
      <trkpt lat="39.583958" lon="-84.765753">
        <ele>264.096157</ele>
        <time>2024-09-15T07:57:29.000Z</time>
      </trkpt>
      <trkpt lat="39.585182" lon="-84.767216">
        <ele>264.25789</ele>
        <time>2024-09-15T07:57:48.000Z</time>
      </trkpt>
      <trkpt lat="39.585535" lon="-84.767634">
        <ele>264.246174</ele>
        <time>2024-09-15T07:57:53.000Z</time>
      </trkpt>
      <trkpt lat="39.585724" lon="-84.767867">
        <ele>264.177651</ele>
        <time>2024-09-15T07:57:56.000Z</time>
      </trkpt>
      <trkpt lat="39.585843" lon="-84.767957">
        <ele>264.139924</ele>
        <time>2024-09-15T07:57:58.000Z</time>
      </trkpt>
      <trkpt lat="39.585923" lon="-84.767973">
        <ele>264.122799</ele>
        <time>2024-09-15T07:57:59.000Z</time>
      </trkpt>
      <trkpt lat="39.5862" lon="-84.767913">
        <ele>264.052077</ele>
        <time>2024-09-15T07:58:02.000Z</time>
      </trkpt>
      <trkpt lat="39.586722" lon="-84.767824">
        <ele>263.914653</ele>
        <time>2024-09-15T07:58:08.000Z</time>
      </trkpt>
      <trkpt lat="39.58691" lon="-84.767756">
        <ele>263.866038</ele>
        <time>2024-09-15T07:58:10.000Z</time>
      </trkpt>
      <trkpt lat="39.587027" lon="-84.767689">
        <ele>263.886201</ele>
        <time>2024-09-15T07:58:11.000Z</time>
      </trkpt>
      <trkpt lat="39.587663" lon="-84.767295">
        <ele>264.505647</ele>
        <time>2024-09-15T07:58:19.000Z</time>
      </trkpt>
      <trkpt lat="39.58815" lon="-84.766732">
        <ele>265.09911</ele>
        <time>2024-09-15T07:58:26.000Z</time>
      </trkpt>
      <trkpt lat="39.588507" lon="-84.766177">
        <ele>265.839079</ele>
        <time>2024-09-15T07:58:32.000Z</time>
      </trkpt>
      <trkpt lat="39.589019" lon="-84.76491">
        <ele>268.459112</ele>
        <time>2024-09-15T07:58:44.000Z</time>
      </trkpt>
      <trkpt lat="39.589244" lon="-84.764624">
        <ele>269.220314</ele>
        <time>2024-09-15T07:58:48.000Z</time>
      </trkpt>
      <trkpt lat="39.589631" lon="-84.764349">
        <ele>270.731788</ele>
        <time>2024-09-15T07:58:53.000Z</time>
      </trkpt>
      <trkpt lat="39.590334" lon="-84.764153">
        <ele>273.995527</ele>
        <time>2024-09-15T07:59:01.000Z</time>
      </trkpt>
      <trkpt lat="39.590837" lon="-84.763892">
        <ele>276.365285</ele>
        <time>2024-09-15T07:59:07.000Z</time>
      </trkpt>
      <trkpt lat="39.591129" lon="-84.763694">
        <ele>277.91594</ele>
        <time>2024-09-15T07:59:11.000Z</time>
      </trkpt>
      <trkpt lat="39.591615" lon="-84.763138">
        <ele>281.334048</ele>
        <time>2024-09-15T07:59:18.000Z</time>
      </trkpt>
      <trkpt lat="39.592142" lon="-84.762126">
        <ele>286.386785</ele>
        <time>2024-09-15T07:59:28.000Z</time>
      </trkpt>
      <trkpt lat="39.592359" lon="-84.76184">
        <ele>287.500422</ele>
        <time>2024-09-15T07:59:31.000Z</time>
      </trkpt>
      <trkpt lat="39.59266" lon="-84.761536">
        <ele>287.694311</ele>
        <time>2024-09-15T07:59:35.000Z</time>
      </trkpt>
      <trkpt lat="39.592836" lon="-84.761283">
        <ele>287.830928</ele>
        <time>2024-09-15T07:59:38.000Z</time>
      </trkpt>
      <trkpt lat="39.59291" lon="-84.760495">
        <ele>288.141683</ele>
        <time>2024-09-15T07:59:45.000Z</time>
      </trkpt>
      <trkpt lat="39.592898" lon="-84.760344">
        <ele>288.201115</ele>
        <time>2024-09-15T07:59:46.000Z</time>
      </trkpt>
      <trkpt lat="39.592781" lon="-84.759705">
        <ele>287.329185</ele>
        <time>2024-09-15T07:59:52.000Z</time>
      </trkpt>
      <trkpt lat="39.592411" lon="-84.758491">
        <ele>282.115965</ele>
        <time>2024-09-15T08:00:03.000Z</time>
      </trkpt>
      <trkpt lat="39.592323" lon="-84.757983">
        <ele>279.973809</ele>
        <time>2024-09-15T08:00:07.000Z</time>
      </trkpt>
      <trkpt lat="39.592251" lon="-84.756555">
        <ele>274.590193</ele>
        <time>2024-09-15T08:00:19.000Z</time>
      </trkpt>
      <trkpt lat="39.592167" lon="-84.756125">
        <ele>272.945177</ele>
        <time>2024-09-15T08:00:23.000Z</time>
      </trkpt>
      <trkpt lat="39.592125" lon="-84.756003">
        <ele>272.416723</ele>
        <time>2024-09-15T08:00:24.000Z</time>
      </trkpt>
      <trkpt lat="39.591923" lon="-84.755829">
        <ele>271.275516</ele>
        <time>2024-09-15T08:00:27.000Z</time>
      </trkpt>
      <trkpt lat="39.59137" lon="-84.75577">
        <ele>270.022021</ele>
        <time>2024-09-15T08:00:33.000Z</time>
      </trkpt>
      <trkpt lat="39.591093" lon="-84.75553">
        <ele>269.787289</ele>
        <time>2024-09-15T08:00:37.000Z</time>
      </trkpt>
      <trkpt lat="39.590691" lon="-84.754464">
        <ele>269.149805</ele>
        <time>2024-09-15T08:00:47.000Z</time>
      </trkpt>
      <trkpt lat="39.590492" lon="-84.754006">
        <ele>269.165471</ele>
        <time>2024-09-15T08:00:52.000Z</time>
      </trkpt>
      <trkpt lat="39.5903" lon="-84.753719">
        <ele>269.379266</ele>
        <time>2024-09-15T08:00:55.000Z</time>
      </trkpt>
      <trkpt lat="39.589667" lon="-84.75302">
        <ele>270.007555</ele>
        <time>2024-09-15T08:01:04.000Z</time>
      </trkpt>
      <trkpt lat="39.589399" lon="-84.752468">
        <ele>270.49163</ele>
        <time>2024-09-15T08:01:10.000Z</time>
      </trkpt>
      <trkpt lat="39.589319" lon="-84.75199">
        <ele>272.042314</ele>
        <time>2024-09-15T08:01:14.000Z</time>
      </trkpt>
      <trkpt lat="39.589294" lon="-84.751431">
        <ele>273.82399</ele>
        <time>2024-09-15T08:01:19.000Z</time>
      </trkpt>
      <trkpt lat="39.589336" lon="-84.751141">
        <ele>274.723215</ele>
        <time>2024-09-15T08:01:22.000Z</time>
      </trkpt>
      <trkpt lat="39.589874" lon="-84.749488">
        <ele>281.1169</ele>
        <time>2024-09-15T08:01:37.000Z</time>
      </trkpt>
      <trkpt lat="39.589937" lon="-84.748933">
        <ele>283.354223</ele>
        <time>2024-09-15T08:01:42.000Z</time>
      </trkpt>
      <trkpt lat="39.589911" lon="-84.74784">
        <ele>287.45808</ele>
        <time>2024-09-15T08:01:51.000Z</time>
      </trkpt>
      <trkpt lat="39.589975" lon="-84.747354">
        <ele>288.711226</ele>
        <time>2024-09-15T08:01:55.000Z</time>
      </trkpt>
      <trkpt lat="39.589909" lon="-84.746559">
        <ele>290.799845</ele>
        <time>2024-09-15T08:02:02.000Z</time>
      </trkpt>
      <trkpt lat="39.589777" lon="-84.746148">
        <ele>291.982132</ele>
        <time>2024-09-15T08:02:06.000Z</time>
      </trkpt>
      <trkpt lat="39.589418" lon="-84.745286">
        <ele>294.085803</ele>
        <time>2024-09-15T08:02:14.000Z</time>
      </trkpt>
      <trkpt lat="39.588708" lon="-84.7443">
        <ele>296.527794</ele>
        <time>2024-09-15T08:02:26.000Z</time>
      </trkpt>
      <trkpt lat="39.588188" lon="-84.743856">
        <ele>297.669369</ele>
        <time>2024-09-15T08:02:33.000Z</time>
      </trkpt>
      <trkpt lat="39.587565" lon="-84.743439">
        <ele>298.53788</ele>
        <time>2024-09-15T08:02:41.000Z</time>
      </trkpt>
      <trkpt lat="39.586792" lon="-84.743208">
        <ele>299.527889</ele>
        <time>2024-09-15T08:02:50.000Z</time>
      </trkpt>
      <trkpt lat="39.584963" lon="-84.743112">
        <ele>300.068595</ele>
        <time>2024-09-15T08:03:10.000Z</time>
      </trkpt>
      <trkpt lat="39.583265" lon="-84.743042">
        <ele>299.716136</ele>
        <time>2024-09-15T08:03:29.000Z</time>
      </trkpt>
      <trkpt lat="39.582304" lon="-84.742871">
        <ele>299.580282</ele>
        <time>2024-09-15T08:03:40.000Z</time>
      </trkpt>
      <trkpt lat="39.581272" lon="-84.742421">
        <ele>299.475139</ele>
        <time>2024-09-15T08:03:52.000Z</time>
      </trkpt>
      <trkpt lat="39.580319" lon="-84.741767">
        <ele>299.589949</ele>
        <time>2024-09-15T08:04:04.000Z</time>
      </trkpt>
      <trkpt lat="39.579657" lon="-84.741081">
        <ele>299.56405</ele>
        <time>2024-09-15T08:04:13.000Z</time>
      </trkpt>
      <trkpt lat="39.579415" lon="-84.7406">
        <ele>299.436418</ele>
        <time>2024-09-15T08:04:18.000Z</time>
      </trkpt>
      <trkpt lat="39.579284" lon="-84.740225">
        <ele>299.34761</ele>
        <time>2024-09-15T08:04:22.000Z</time>
      </trkpt>
      <trkpt lat="39.579175" lon="-84.73909">
        <ele>299.02794</ele>
        <time>2024-09-15T08:04:32.000Z</time>
      </trkpt>
      <trkpt lat="39.579046" lon="-84.738662">
        <ele>298.762055</ele>
        <time>2024-09-15T08:04:36.000Z</time>
      </trkpt>
      <trkpt lat="39.578915" lon="-84.738357">
        <ele>298.5588</ele>
        <time>2024-09-15T08:04:39.000Z</time>
      </trkpt>
      <trkpt lat="39.578404" lon="-84.737634">
        <ele>297.989109</ele>
        <time>2024-09-15T08:04:47.000Z</time>
      </trkpt>
      <trkpt lat="39.577816" lon="-84.736567">
        <ele>297.645638</ele>
        <time>2024-09-15T08:04:58.000Z</time>
      </trkpt>
      <trkpt lat="39.57736" lon="-84.735847">
        <ele>297.522479</ele>
        <time>2024-09-15T08:05:06.000Z</time>
      </trkpt>
      <trkpt lat="39.577163" lon="-84.735245">
        <ele>297.615137</ele>
        <time>2024-09-15T08:05:12.000Z</time>
      </trkpt>
      <trkpt lat="39.577124" lon="-84.734956">
        <ele>297.829762</ele>
        <time>2024-09-15T08:05:15.000Z</time>
      </trkpt>
      <trkpt lat="39.577206" lon="-84.734396">
        <ele>298.234638</ele>
        <time>2024-09-15T08:05:20.000Z</time>
      </trkpt>
      <trkpt lat="39.577225" lon="-84.734254">
        <ele>298.332205</ele>
        <time>2024-09-15T08:05:21.000Z</time>
      </trkpt>
      <trkpt lat="39.577403" lon="-84.73341">
        <ele>298.961573</ele>
        <time>2024-09-15T08:05:28.000Z</time>
      </trkpt>
      <trkpt lat="39.577784" lon="-84.732255">
        <ele>300.002594</ele>
        <time>2024-09-15T08:05:39.000Z</time>
      </trkpt>
      <trkpt lat="39.577902" lon="-84.731904">
        <ele>300.327579</ele>
        <time>2024-09-15T08:05:42.000Z</time>
      </trkpt>
      <trkpt lat="39.57797" lon="-84.731526">
        <ele>300.646662</ele>
        <time>2024-09-15T08:05:45.000Z</time>
      </trkpt>
      <trkpt lat="39.577976" lon="-84.731125">
        <ele>300.982898</ele>
        <time>2024-09-15T08:05:48.000Z</time>
      </trkpt>
      <trkpt lat="39.577859" lon="-84.73063">
        <ele>301.488994</ele>
        <time>2024-09-15T08:05:52.000Z</time>
      </trkpt>
      <trkpt lat="39.577545" lon="-84.729925">
        <ele>302.296033</ele>
        <time>2024-09-15T08:05:59.000Z</time>
      </trkpt>
      <trkpt lat="39.577332" lon="-84.729484">
        <ele>302.828465</ele>
        <time>2024-09-15T08:06:03.000Z</time>
      </trkpt>
      <trkpt lat="39.57722" lon="-84.72905">
        <ele>303.282607</ele>
        <time>2024-09-15T08:06:07.000Z</time>
      </trkpt>
      <trkpt lat="39.577133" lon="-84.728288">
        <ele>304.326294</ele>
        <time>2024-09-15T08:06:14.000Z</time>
      </trkpt>
      <trkpt lat="39.57699" lon="-84.727814">
        <ele>305.071688</ele>
        <time>2024-09-15T08:06:18.000Z</time>
      </trkpt>
      <trkpt lat="39.576658" lon="-84.727304">
        <ele>306.031443</ele>
        <time>2024-09-15T08:06:24.000Z</time>
      </trkpt>
      <trkpt lat="39.576661" lon="-84.727296">
        <ele>306.059185</ele>
        <time>2024-09-15T08:06:24.000Z</time>
      </trkpt>
      <trkpt lat="39.576361" lon="-84.727033">
        <ele>306.726396</ele>
        <time>2024-09-15T08:06:28.000Z</time>
      </trkpt>
      <trkpt lat="39.576081" lon="-84.726851">
        <ele>306.758439</ele>
        <time>2024-09-15T08:06:31.000Z</time>
      </trkpt>
      <trkpt lat="39.575721" lon="-84.726767">
        <ele>306.604433</ele>
        <time>2024-09-15T08:06:35.000Z</time>
      </trkpt>
      <trkpt lat="39.57487" lon="-84.726754">
        <ele>306.236041</ele>
        <time>2024-09-15T08:06:44.000Z</time>
      </trkpt>
      <trkpt lat="39.574033" lon="-84.726809">
        <ele>304.905883</ele>
        <time>2024-09-15T08:06:53.000Z</time>
      </trkpt>
      <trkpt lat="39.573545" lon="-84.726969">
        <ele>303.743177</ele>
        <time>2024-09-15T08:06:59.000Z</time>
      </trkpt>
      <trkpt lat="39.572634" lon="-84.726804">
        <ele>301.79497</ele>
        <time>2024-09-15T08:07:09.000Z</time>
      </trkpt>
      <trkpt lat="39.572283" lon="-84.726818">
        <ele>301.568049</ele>
        <time>2024-09-15T08:07:13.000Z</time>
      </trkpt>
      <trkpt lat="39.571897" lon="-84.726886">
        <ele>301.300816</ele>
        <time>2024-09-15T08:07:17.000Z</time>
      </trkpt>
      <trkpt lat="39.57129" lon="-84.727154">
        <ele>300.872157</ele>
        <time>2024-09-15T08:07:24.000Z</time>
      </trkpt>
      <trkpt lat="39.570963" lon="-84.727208">
        <ele>300.707355</ele>
        <time>2024-09-15T08:07:28.000Z</time>
      </trkpt>
      <trkpt lat="39.569484" lon="-84.727335">
        <ele>301.739077</ele>
        <time>2024-09-15T08:07:44.000Z</time>
      </trkpt>
      <trkpt lat="39.569068" lon="-84.727441">
        <ele>301.981463</ele>
        <time>2024-09-15T08:07:49.000Z</time>
      </trkpt>
      <trkpt lat="39.567686" lon="-84.727515">
        <ele>302.464039</ele>
        <time>2024-09-15T08:08:04.000Z</time>
      </trkpt>
      <trkpt lat="39.567316" lon="-84.727665">
        <ele>302.536443</ele>
        <time>2024-09-15T08:08:08.000Z</time>
      </trkpt>
      <trkpt lat="39.567079" lon="-84.727969">
        <ele>302.471315</ele>
        <time>2024-09-15T08:08:12.000Z</time>
      </trkpt>
      <trkpt lat="39.566972" lon="-84.728402">
        <ele>302.401674</ele>
        <time>2024-09-15T08:08:16.000Z</time>
      </trkpt>
      <trkpt lat="39.566989" lon="-84.728941">
        <ele>302.316592</ele>
        <time>2024-09-15T08:08:21.000Z</time>
      </trkpt>
      <trkpt lat="39.56709" lon="-84.729822">
        <ele>302.133998</ele>
        <time>2024-09-15T08:08:29.000Z</time>
      </trkpt>
      <trkpt lat="39.566992" lon="-84.730204">
        <ele>301.90212</ele>
        <time>2024-09-15T08:08:32.000Z</time>
      </trkpt>
      <trkpt lat="39.566806" lon="-84.730533">
        <ele>301.668223</ele>
        <time>2024-09-15T08:08:35.000Z</time>
      </trkpt>
      <trkpt lat="39.566363" lon="-84.730829">
        <ele>301.307416</ele>
        <time>2024-09-15T08:08:41.000Z</time>
      </trkpt>
      <trkpt lat="39.56614" lon="-84.731086">
        <ele>301.096106</ele>
        <time>2024-09-15T08:08:44.000Z</time>
      </trkpt>
      <trkpt lat="39.565604" lon="-84.732702">
        <ele>300.057089</ele>
        <time>2024-09-15T08:08:59.000Z</time>
      </trkpt>
      <trkpt lat="39.565461" lon="-84.733022">
        <ele>299.84269</ele>
        <time>2024-09-15T08:09:02.000Z</time>
      </trkpt>
      <trkpt lat="39.56509" lon="-84.733308">
        <ele>299.511677</ele>
        <time>2024-09-15T08:09:07.000Z</time>
      </trkpt>
      <trkpt lat="39.56477" lon="-84.733432">
        <ele>299.224194</ele>
        <time>2024-09-15T08:09:11.000Z</time>
      </trkpt>
      <trkpt lat="39.563645" lon="-84.733393">
        <ele>298.225639</ele>
        <time>2024-09-15T08:09:24.000Z</time>
      </trkpt>
      <trkpt lat="39.562776" lon="-84.733605">
        <ele>297.02459</ele>
        <time>2024-09-15T08:09:34.000Z</time>
      </trkpt>
      <trkpt lat="39.56093" lon="-84.733469">
        <ele>293.853848</ele>
        <time>2024-09-15T08:09:55.000Z</time>
      </trkpt>
      <trkpt lat="39.560633" lon="-84.733258">
        <ele>293.202092</ele>
        <time>2024-09-15T08:09:59.000Z</time>
      </trkpt>
      <trkpt lat="39.560063" lon="-84.732303">
        <ele>291.317436</ele>
        <time>2024-09-15T08:10:09.000Z</time>
      </trkpt>
      <trkpt lat="39.559879" lon="-84.732069">
        <ele>290.427191</ele>
        <time>2024-09-15T08:10:12.000Z</time>
      </trkpt>
      <trkpt lat="39.559662" lon="-84.731933">
        <ele>289.521163</ele>
        <time>2024-09-15T08:10:15.000Z</time>
      </trkpt>
      <trkpt lat="39.558728" lon="-84.73174">
        <ele>286.140188</ele>
        <time>2024-09-15T08:10:26.000Z</time>
      </trkpt>
      <trkpt lat="39.557643" lon="-84.731345">
        <ele>281.950889</ele>
        <time>2024-09-15T08:10:39.000Z</time>
      </trkpt>
      <trkpt lat="39.555864" lon="-84.731275">
        <ele>275.657418</ele>
        <time>2024-09-15T08:10:59.000Z</time>
      </trkpt>
      <trkpt lat="39.554926" lon="-84.731745">
        <ele>272.313772</ele>
        <time>2024-09-15T08:11:10.000Z</time>
      </trkpt>
      <trkpt lat="39.554566" lon="-84.732049">
        <ele>269.742662</ele>
        <time>2024-09-15T08:11:15.000Z</time>
      </trkpt>
      <trkpt lat="39.55427" lon="-84.732426">
        <ele>267.230072</ele>
        <time>2024-09-15T08:11:20.000Z</time>
      </trkpt>
      <trkpt lat="39.553518" lon="-84.73392">
        <ele>259.546089</ele>
        <time>2024-09-15T08:11:35.000Z</time>
      </trkpt>
      <trkpt lat="39.553504" lon="-84.73438">
        <ele>257.908532</ele>
        <time>2024-09-15T08:11:39.000Z</time>
      </trkpt>
      <trkpt lat="39.553607" lon="-84.73482">
        <ele>256.271872</ele>
        <time>2024-09-15T08:11:43.000Z</time>
      </trkpt>
      <trkpt lat="39.553695" lon="-84.735277">
        <ele>254.603565</ele>
        <time>2024-09-15T08:11:47.000Z</time>
      </trkpt>
      <trkpt lat="39.553763" lon="-84.735574">
        <ele>253.517894</ele>
        <time>2024-09-15T08:11:50.000Z</time>
      </trkpt>
      <trkpt lat="39.554201" lon="-84.737621">
        <ele>253.873543</ele>
        <time>2024-09-15T08:12:08.000Z</time>
      </trkpt>
      <trkpt lat="39.554484" lon="-84.738595">
        <ele>256.80952</ele>
        <time>2024-09-15T08:12:17.000Z</time>
      </trkpt>
      <trkpt lat="39.554605" lon="-84.739441">
        <ele>259.93498</ele>
        <time>2024-09-15T08:12:24.000Z</time>
      </trkpt>
      <trkpt lat="39.554771" lon="-84.742257">
        <ele>274.512033</ele>
        <time>2024-09-15T08:12:48.000Z</time>
      </trkpt>
      <trkpt lat="39.554966" lon="-84.743064">
        <ele>277.864138</ele>
        <time>2024-09-15T08:12:55.000Z</time>
      </trkpt>
      <trkpt lat="39.555364" lon="-84.744376">
        <ele>282.858927</ele>
        <time>2024-09-15T08:13:07.000Z</time>
      </trkpt>
      <trkpt lat="39.555655" lon="-84.744804">
        <ele>284.201488</ele>
        <time>2024-09-15T08:13:12.000Z</time>
      </trkpt>
      <trkpt lat="39.555878" lon="-84.744987">
        <ele>284.592017</ele>
        <time>2024-09-15T08:13:15.000Z</time>
      </trkpt>
      <trkpt lat="39.556157" lon="-84.745171">
        <ele>285.06538</ele>
        <time>2024-09-15T08:13:18.000Z</time>
      </trkpt>
      <trkpt lat="39.557488" lon="-84.745655">
        <ele>286.932966</ele>
        <time>2024-09-15T08:13:33.000Z</time>
      </trkpt>
      <trkpt lat="39.557794" lon="-84.746028">
        <ele>287.287466</ele>
        <time>2024-09-15T08:13:38.000Z</time>
      </trkpt>
      <trkpt lat="39.558245" lon="-84.746788">
        <ele>287.914363</ele>
        <time>2024-09-15T08:13:46.000Z</time>
      </trkpt>
      <trkpt lat="39.558466" lon="-84.746977">
        <ele>288.128481</ele>
        <time>2024-09-15T08:13:49.000Z</time>
      </trkpt>
      <trkpt lat="39.558834" lon="-84.747219">
        <ele>288.306936</ele>
        <time>2024-09-15T08:13:54.000Z</time>
      </trkpt>
      <trkpt lat="39.559263" lon="-84.747382">
        <ele>288.50123</ele>
        <time>2024-09-15T08:13:59.000Z</time>
      </trkpt>
      <trkpt lat="39.559864" lon="-84.747448">
        <ele>288.765028</ele>
        <time>2024-09-15T08:14:06.000Z</time>
      </trkpt>
      <trkpt lat="39.56037" lon="-84.747659">
        <ele>288.964722</ele>
        <time>2024-09-15T08:14:12.000Z</time>
      </trkpt>
      <trkpt lat="39.560748" lon="-84.747905">
        <ele>289.078953</ele>
        <time>2024-09-15T08:14:17.000Z</time>
      </trkpt>
      <trkpt lat="39.560907" lon="-84.748086">
        <ele>289.134669</ele>
        <time>2024-09-15T08:14:19.000Z</time>
      </trkpt>
      <trkpt lat="39.561152" lon="-84.748458">
        <ele>289.239641</ele>
        <time>2024-09-15T08:14:23.000Z</time>
      </trkpt>
      <trkpt lat="39.561382" lon="-84.748926">
        <ele>289.355389</ele>
        <time>2024-09-15T08:14:28.000Z</time>
      </trkpt>
      <trkpt lat="39.561839" lon="-84.749438">
        <ele>289.351529</ele>
        <time>2024-09-15T08:14:35.000Z</time>
      </trkpt>
      <trkpt lat="39.562056" lon="-84.749582">
        <ele>289.324945</ele>
        <time>2024-09-15T08:14:38.000Z</time>
      </trkpt>
      <trkpt lat="39.562534" lon="-84.749707">
        <ele>289.27117</ele>
        <time>2024-09-15T08:14:43.000Z</time>
      </trkpt>
      <trkpt lat="39.563586" lon="-84.749967">
        <ele>289.031896</ele>
        <time>2024-09-15T08:14:55.000Z</time>
      </trkpt>
      <trkpt lat="39.56456" lon="-84.750084">
        <ele>288.665057</ele>
        <time>2024-09-15T08:15:06.000Z</time>
      </trkpt>
      <trkpt lat="39.564851" lon="-84.750225">
        <ele>288.544774</ele>
        <time>2024-09-15T08:15:09.000Z</time>
      </trkpt>
      <trkpt lat="39.565425" lon="-84.750772">
        <ele>288.059282</ele>
        <time>2024-09-15T08:15:17.000Z</time>
      </trkpt>
      <trkpt lat="39.565653" lon="-84.751089">
        <ele>287.823715</ele>
        <time>2024-09-15T08:15:21.000Z</time>
      </trkpt>
      <trkpt lat="39.565924" lon="-84.751615">
        <ele>287.492446</ele>
        <time>2024-09-15T08:15:26.000Z</time>
      </trkpt>
      <trkpt lat="39.56619" lon="-84.751886">
        <ele>287.24937</ele>
        <time>2024-09-15T08:15:30.000Z</time>
      </trkpt>
      <trkpt lat="39.566543" lon="-84.751981">
        <ele>286.991885</ele>
        <time>2024-09-15T08:15:34.000Z</time>
      </trkpt>
      <trkpt lat="39.56708" lon="-84.751823">
        <ele>286.608957</ele>
        <time>2024-09-15T08:15:40.000Z</time>
      </trkpt>
      <trkpt lat="39.567372" lon="-84.751823">
        <ele>286.391241</ele>
        <time>2024-09-15T08:15:43.000Z</time>
      </trkpt>
      <trkpt lat="39.567604" lon="-84.751909">
        <ele>286.227358</ele>
        <time>2024-09-15T08:15:46.000Z</time>
      </trkpt>
      <trkpt lat="39.567758" lon="-84.752092">
        <ele>286.074089</ele>
        <time>2024-09-15T08:15:48.000Z</time>
      </trkpt>
      <trkpt lat="39.567896" lon="-84.752306">
        <ele>286.112269</ele>
        <time>2024-09-15T08:15:50.000Z</time>
      </trkpt>
      <trkpt lat="39.567979" lon="-84.752616">
        <ele>286.491114</ele>
        <time>2024-09-15T08:15:53.000Z</time>
      </trkpt>
      <trkpt lat="39.567998" lon="-84.752897">
        <ele>286.817218</ele>
        <time>2024-09-15T08:15:55.000Z</time>
      </trkpt>
      <trkpt lat="39.567961" lon="-84.753142">
        <ele>287.101393</ele>
        <time>2024-09-15T08:15:57.000Z</time>
      </trkpt>
      <trkpt lat="39.567779" lon="-84.7536">
        <ele>287.706735</ele>
        <time>2024-09-15T08:16:01.000Z</time>
      </trkpt>
      <trkpt lat="39.567647" lon="-84.754096">
        <ele>288.334463</ele>
        <time>2024-09-15T08:16:05.000Z</time>
      </trkpt>
      <trkpt lat="39.567417" lon="-84.756054">
        <ele>291.446846</ele>
        <time>2024-09-15T08:16:22.000Z</time>
      </trkpt>
      <trkpt lat="39.567508" lon="-84.756754">
        <ele>292.558846</ele>
        <time>2024-09-15T08:16:28.000Z</time>
      </trkpt>
      <trkpt lat="39.567733" lon="-84.757297">
        <ele>292.413841</ele>
        <time>2024-09-15T08:16:33.000Z</time>
      </trkpt>
      <trkpt lat="39.567843" lon="-84.75784">
        <ele>292.275162</ele>
        <time>2024-09-15T08:16:38.000Z</time>
      </trkpt>
      <trkpt lat="39.568035" lon="-84.759393">
        <ele>291.350365</ele>
        <time>2024-09-15T08:16:51.000Z</time>
      </trkpt>
      <trkpt lat="39.568078" lon="-84.759696">
        <ele>290.910186</ele>
        <time>2024-09-15T08:16:54.000Z</time>
      </trkpt>
      <trkpt lat="39.568264" lon="-84.76047">
        <ele>289.706604</ele>
        <time>2024-09-15T08:17:01.000Z</time>
      </trkpt>
      <trkpt lat="39.568395" lon="-84.760898">
        <ele>289.033951</ele>
        <time>2024-09-15T08:17:05.000Z</time>
      </trkpt>
      <trkpt lat="39.568701" lon="-84.761477">
        <ele>288.353663</ele>
        <time>2024-09-15T08:17:11.000Z</time>
      </trkpt>
      <trkpt lat="39.568921" lon="-84.761754">
        <ele>288.130957</ele>
        <time>2024-09-15T08:17:14.000Z</time>
      </trkpt>
      <trkpt lat="39.569372" lon="-84.762099">
        <ele>287.732683</ele>
        <time>2024-09-15T08:17:20.000Z</time>
      </trkpt>
      <trkpt lat="39.569776" lon="-84.762289">
        <ele>287.413048</ele>
        <time>2024-09-15T08:17:25.000Z</time>
      </trkpt>
      <trkpt lat="39.570122" lon="-84.762333">
        <ele>287.275529</ele>
        <time>2024-09-15T08:17:29.000Z</time>
      </trkpt>
      <trkpt lat="39.570345" lon="-84.762316">
        <ele>287.343502</ele>
        <time>2024-09-15T08:17:31.000Z</time>
      </trkpt>
      <trkpt lat="39.570827" lon="-84.762068">
        <ele>287.501161</ele>
        <time>2024-09-15T08:17:37.000Z</time>
      </trkpt>
      <trkpt lat="39.571128" lon="-84.762041">
        <ele>287.590521</ele>
        <time>2024-09-15T08:17:40.000Z</time>
      </trkpt>
      <trkpt lat="39.571873" lon="-84.762331">
        <ele>287.764191</ele>
        <time>2024-09-15T08:17:49.000Z</time>
      </trkpt>
      <trkpt lat="39.572363" lon="-84.762401">
        <ele>287.675237</ele>
        <time>2024-09-15T08:17:54.000Z</time>
      </trkpt>
      <trkpt lat="39.572673" lon="-84.762438">
        <ele>287.618753</ele>
        <time>2024-09-15T08:17:57.000Z</time>
      </trkpt>
      <trkpt lat="39.573599" lon="-84.762118">
        <ele>287.433062</ele>
        <time>2024-09-15T08:18:08.000Z</time>
      </trkpt>
      <trkpt lat="39.574305" lon="-84.76215">
        <ele>287.213875</ele>
        <time>2024-09-15T08:18:16.000Z</time>
      </trkpt>
      <trkpt lat="39.574334" lon="-84.762135">
        <ele>287.201825</ele>
        <time>2024-09-15T08:18:16.000Z</time>
      </trkpt>
      <trkpt lat="39.574661" lon="-84.762021">
        <ele>287.095843</ele>
        <time>2024-09-15T08:18:20.000Z</time>
      </trkpt>
      <trkpt lat="39.574969" lon="-84.761967">
        <ele>287.001289</ele>
        <time>2024-09-15T08:18:23.000Z</time>
      </trkpt>
      <trkpt lat="39.5755" lon="-84.762164">
        <ele>287.02988</ele>
        <time>2024-09-15T08:18:29.000Z</time>
      </trkpt>
      <trkpt lat="39.575768" lon="-84.76216">
        <ele>287.171845</ele>
        <time>2024-09-15T08:18:32.000Z</time>
      </trkpt>
      <trkpt lat="39.576398" lon="-84.761914">
        <ele>287.543215</ele>
        <time>2024-09-15T08:18:39.000Z</time>
      </trkpt>
      <trkpt lat="39.576898" lon="-84.761848">
        <ele>287.817379</ele>
        <time>2024-09-15T08:18:45.000Z</time>
      </trkpt>
      <trkpt lat="39.577126" lon="-84.761957">
        <ele>287.95599</ele>
        <time>2024-09-15T08:18:48.000Z</time>
      </trkpt>
      <trkpt lat="39.577375" lon="-84.762444">
        <ele>288.236091</ele>
        <time>2024-09-15T08:18:53.000Z</time>
      </trkpt>
      <trkpt lat="39.577577" lon="-84.763106">
        <ele>288.570199</ele>
        <time>2024-09-15T08:18:59.000Z</time>
      </trkpt>
      <trkpt lat="39.577715" lon="-84.763331">
        <ele>288.714241</ele>
        <time>2024-09-15T08:19:01.000Z</time>
      </trkpt>
      <trkpt lat="39.577942" lon="-84.763521">
        <ele>288.875377</ele>
        <time>2024-09-15T08:19:04.000Z</time>
      </trkpt>
      <trkpt lat="39.578159" lon="-84.763584">
        <ele>288.965539</ele>
        <time>2024-09-15T08:19:06.000Z</time>
      </trkpt>
      <trkpt lat="39.578769" lon="-84.763553">
        <ele>288.231148</ele>
        <time>2024-09-15T08:19:13.000Z</time>
      </trkpt>
      <trkpt lat="39.578973" lon="-84.763856">
        <ele>287.856253</ele>
        <time>2024-09-15T08:19:16.000Z</time>
      </trkpt>
      <trkpt lat="39.579109" lon="-84.764355">
        <ele>287.343242</ele>
        <time>2024-09-15T08:19:21.000Z</time>
      </trkpt>
      <trkpt lat="39.579443" lon="-84.765034">
        <ele>286.133067</ele>
        <time>2024-09-15T08:19:28.000Z</time>
      </trkpt>
      <trkpt lat="39.579563" lon="-84.765444">
        <ele>284.727809</ele>
        <time>2024-09-15T08:19:32.000Z</time>
      </trkpt>
      <trkpt lat="39.579712" lon="-84.765631">
        <ele>283.895023</ele>
        <time>2024-09-15T08:19:34.000Z</time>
      </trkpt>
      <trkpt lat="39.579873" lon="-84.765625">
        <ele>283.244471</ele>
        <time>2024-09-15T08:19:36.000Z</time>
      </trkpt>
      <trkpt lat="39.580102" lon="-84.765459">
        <ele>282.216137</ele>
        <time>2024-09-15T08:19:39.000Z</time>
      </trkpt>
      <trkpt lat="39.580232" lon="-84.765291">
        <ele>281.455708</ele>
        <time>2024-09-15T08:19:41.000Z</time>
      </trkpt>
      <trkpt lat="39.580518" lon="-84.764616">
        <ele>278.84908</ele>
        <time>2024-09-15T08:19:48.000Z</time>
      </trkpt>
      <trkpt lat="39.580638" lon="-84.764442">
        <ele>277.809799</ele>
        <time>2024-09-15T08:19:50.000Z</time>
      </trkpt>
      <trkpt lat="39.58089" lon="-84.764251">
        <ele>276.09433</ele>
        <time>2024-09-15T08:19:53.000Z</time>
      </trkpt>
      <trkpt lat="39.581112" lon="-84.764184">
        <ele>274.749827</ele>
        <time>2024-09-15T08:19:56.000Z</time>
      </trkpt>
      <trkpt lat="39.581326" lon="-84.764251">
        <ele>273.385112</ele>
        <time>2024-09-15T08:19:58.000Z</time>
      </trkpt>
      <trkpt lat="39.581464" lon="-84.764352">
        <ele>272.487518</ele>
        <time>2024-09-15T08:20:00.000Z</time>
      </trkpt>
      <trkpt lat="39.581634" lon="-84.764593">
        <ele>271.0204</ele>
        <time>2024-09-15T08:20:03.000Z</time>
      </trkpt>
      <trkpt lat="39.581916" lon="-84.765073">
        <ele>268.619256</ele>
        <time>2024-09-15T08:20:08.000Z</time>
      </trkpt>
      <trkpt lat="39.582129" lon="-84.76519">
        <ele>267.988878</ele>
        <time>2024-09-15T08:20:11.000Z</time>
      </trkpt>
      <trkpt lat="39.582384" lon="-84.765194">
        <ele>267.331608</ele>
        <time>2024-09-15T08:20:14.000Z</time>
      </trkpt>
      <trkpt lat="39.583069" lon="-84.765079">
        <ele>265.46791</ele>
        <time>2024-09-15T08:20:22.000Z</time>
      </trkpt>
      <trkpt lat="39.58349" lon="-84.765223">
        <ele>264.263128</ele>
        <time>2024-09-15T08:20:27.000Z</time>
      </trkpt>
      <trkpt lat="39.583607" lon="-84.76537">
        <ele>264.073739</ele>
        <time>2024-09-15T08:20:29.000Z</time>
      </trkpt>
      <trkpt lat="39.583956" lon="-84.765747">
        <ele>264.133989</ele>
        <time>2024-09-15T08:20:34.000Z</time>
      </trkpt>
      <trkpt lat="39.585191" lon="-84.767213">
        <ele>264.219662</ele>
        <time>2024-09-15T08:20:53.000Z</time>
      </trkpt>
      <trkpt lat="39.585533" lon="-84.767622">
        <ele>264.128588</ele>
        <time>2024-09-15T08:20:58.000Z</time>
      </trkpt>
      <trkpt lat="39.585721" lon="-84.767861">
        <ele>264.076387</ele>
        <time>2024-09-15T08:21:01.000Z</time>
      </trkpt>
      <trkpt lat="39.585855" lon="-84.767963">
        <ele>264.047642</ele>
        <time>2024-09-15T08:21:03.000Z</time>
      </trkpt>
      <trkpt lat="39.585912" lon="-84.767971">
        <ele>264.034601</ele>
        <time>2024-09-15T08:21:04.000Z</time>
      </trkpt>
      <trkpt lat="39.586194" lon="-84.76793">
        <ele>263.980711</ele>
        <time>2024-09-15T08:21:07.000Z</time>
      </trkpt>
      <trkpt lat="39.586729" lon="-84.767833">
        <ele>264.065649</ele>
        <time>2024-09-15T08:21:13.000Z</time>
      </trkpt>
      <trkpt lat="39.586906" lon="-84.767757">
        <ele>264.123359</ele>
        <time>2024-09-15T08:21:15.000Z</time>
      </trkpt>
      <trkpt lat="39.587022" lon="-84.767693">
        <ele>264.161999</ele>
        <time>2024-09-15T08:21:16.000Z</time>
      </trkpt>
      <trkpt lat="39.587648" lon="-84.767302">
        <ele>264.372698</ele>
        <time>2024-09-15T08:21:24.000Z</time>
      </trkpt>
      <trkpt lat="39.588148" lon="-84.766727">
        <ele>264.986189</ele>
        <time>2024-09-15T08:21:31.000Z</time>
      </trkpt>
      <trkpt lat="39.588505" lon="-84.766183">
        <ele>266.022795</ele>
        <time>2024-09-15T08:21:37.000Z</time>
      </trkpt>
      <trkpt lat="39.589017" lon="-84.764915">
        <ele>268.292821</ele>
        <time>2024-09-15T08:21:49.000Z</time>
      </trkpt>
      <trkpt lat="39.589255" lon="-84.764617">
        <ele>269.455202</ele>
        <time>2024-09-15T08:21:53.000Z</time>
      </trkpt>
      <trkpt lat="39.589637" lon="-84.764349">
        <ele>271.039125</ele>
        <time>2024-09-15T08:21:58.000Z</time>
      </trkpt>
      <trkpt lat="39.590348" lon="-84.764135">
        <ele>273.674257</ele>
        <time>2024-09-15T08:22:06.000Z</time>
      </trkpt>
      <trkpt lat="39.59084" lon="-84.763907">
        <ele>276.213208</ele>
        <time>2024-09-15T08:22:12.000Z</time>
      </trkpt>
      <trkpt lat="39.591133" lon="-84.763703">
        <ele>278.098119</ele>
        <time>2024-09-15T08:22:16.000Z</time>
      </trkpt>
      <trkpt lat="39.591605" lon="-84.763129">
        <ele>281.626839</ele>
        <time>2024-09-15T08:22:23.000Z</time>
      </trkpt>
      <trkpt lat="39.592135" lon="-84.762129">
        <ele>285.66218</ele>
        <time>2024-09-15T08:22:33.000Z</time>
      </trkpt>
      <trkpt lat="39.592359" lon="-84.761825">
        <ele>286.570454</ele>
        <time>2024-09-15T08:22:37.000Z</time>
      </trkpt>
      <trkpt lat="39.592661" lon="-84.761542">
        <ele>287.687505</ele>
        <time>2024-09-15T08:22:41.000Z</time>
      </trkpt>
      <trkpt lat="39.592838" lon="-84.76127">
        <ele>288.474707</ele>
        <time>2024-09-15T08:22:44.000Z</time>
      </trkpt>
      <trkpt lat="39.592897" lon="-84.760495">
        <ele>288.760796</ele>
        <time>2024-09-15T08:22:51.000Z</time>
      </trkpt>
      <trkpt lat="39.592893" lon="-84.760331">
        <ele>288.325127</ele>
        <time>2024-09-15T08:22:52.000Z</time>
      </trkpt>
      <trkpt lat="39.592787" lon="-84.759694">
        <ele>286.429274</ele>
        <time>2024-09-15T08:22:58.000Z</time>
      </trkpt>
      <trkpt lat="39.592427" lon="-84.758506">
        <ele>282.635574</ele>
        <time>2024-09-15T08:23:09.000Z</time>
      </trkpt>
      <trkpt lat="39.592306" lon="-84.757987">
        <ele>280.295968</ele>
        <time>2024-09-15T08:23:14.000Z</time>
      </trkpt>
      <trkpt lat="39.592249" lon="-84.756559">
        <ele>273.977623</ele>
        <time>2024-09-15T08:23:26.000Z</time>
      </trkpt>
      <trkpt lat="39.592178" lon="-84.756124">
        <ele>272.370933</ele>
        <time>2024-09-15T08:23:30.000Z</time>
      </trkpt>
      <trkpt lat="39.592112" lon="-84.756005">
        <ele>272.148774</ele>
        <time>2024-09-15T08:23:31.000Z</time>
      </trkpt>
      <trkpt lat="39.591933" lon="-84.755821">
        <ele>271.669012</ele>
        <time>2024-09-15T08:23:34.000Z</time>
      </trkpt>
      <trkpt lat="39.591362" lon="-84.75578">
        <ele>270.541196</ele>
        <time>2024-09-15T08:23:40.000Z</time>
      </trkpt>
      <trkpt lat="39.591083" lon="-84.755529">
        <ele>269.862997</ele>
        <time>2024-09-15T08:23:44.000Z</time>
      </trkpt>
      <trkpt lat="39.590687" lon="-84.754459">
        <ele>269.067795</ele>
        <time>2024-09-15T08:23:54.000Z</time>
      </trkpt>
      <trkpt lat="39.590488" lon="-84.753998">
        <ele>269.193712</ele>
        <time>2024-09-15T08:23:59.000Z</time>
      </trkpt>
      <trkpt lat="39.590302" lon="-84.753715">
        <ele>269.279887</ele>
        <time>2024-09-15T08:24:02.000Z</time>
      </trkpt>
      <trkpt lat="39.589682" lon="-84.753033">
        <ele>269.959331</ele>
        <time>2024-09-15T08:24:11.000Z</time>
      </trkpt>
      <trkpt lat="39.589392" lon="-84.752473">
        <ele>271.349704</ele>
        <time>2024-09-15T08:24:17.000Z</time>
      </trkpt>
      <trkpt lat="39.589317" lon="-84.751984">
        <ele>272.387783</ele>
        <time>2024-09-15T08:24:21.000Z</time>
      </trkpt>
      <trkpt lat="39.5893" lon="-84.751426">
        <ele>273.580477</ele>
        <time>2024-09-15T08:24:26.000Z</time>
      </trkpt>
      <trkpt lat="39.589326" lon="-84.75115">
        <ele>274.18245</ele>
        <time>2024-09-15T08:24:28.000Z</time>
      </trkpt>
      <trkpt lat="39.589869" lon="-84.749483">
        <ele>281.32733</ele>
        <time>2024-09-15T08:24:44.000Z</time>
      </trkpt>
      <trkpt lat="39.589935" lon="-84.748917">
        <ele>283.617135</ele>
        <time>2024-09-15T08:24:49.000Z</time>
      </trkpt>
      <trkpt lat="39.589915" lon="-84.747838">
        <ele>287.071929</ele>
        <time>2024-09-15T08:24:58.000Z</time>
      </trkpt>
      <trkpt lat="39.589969" lon="-84.747358">
        <ele>288.55811</ele>
        <time>2024-09-15T08:25:02.000Z</time>
      </trkpt>
      <trkpt lat="39.589916" lon="-84.746574">
        <ele>291.035147</ele>
        <time>2024-09-15T08:25:09.000Z</time>
      </trkpt>
      <trkpt lat="39.589781" lon="-84.746145">
        <ele>292.013362</ele>
        <time>2024-09-15T08:25:13.000Z</time>
      </trkpt>
      <trkpt lat="39.58942" lon="-84.745294">
        <ele>294.042866</ele>
        <time>2024-09-15T08:25:21.000Z</time>
      </trkpt>
      <trkpt lat="39.58871" lon="-84.744298">
        <ele>296.539173</ele>
        <time>2024-09-15T08:25:33.000Z</time>
      </trkpt>
      <trkpt lat="39.588181" lon="-84.743847">
        <ele>297.571474</ele>
        <time>2024-09-15T08:25:40.000Z</time>
      </trkpt>
      <trkpt lat="39.587557" lon="-84.74344">
        <ele>298.721808</ele>
        <time>2024-09-15T08:25:48.000Z</time>
      </trkpt>
      <trkpt lat="39.586791" lon="-84.743198">
        <ele>299.343814</ele>
        <time>2024-09-15T08:25:57.000Z</time>
      </trkpt>
      <trkpt lat="39.584972" lon="-84.743109">
        <ele>299.956778</ele>
        <time>2024-09-15T08:26:17.000Z</time>
      </trkpt>
      <trkpt lat="39.583259" lon="-84.743047">
        <ele>299.749627</ele>
        <time>2024-09-15T08:26:36.000Z</time>
      </trkpt>
      <trkpt lat="39.582319" lon="-84.742874">
        <ele>299.545232</ele>
        <time>2024-09-15T08:26:47.000Z</time>
      </trkpt>
      <trkpt lat="39.581276" lon="-84.742418">
        <ele>299.525798</ele>
        <time>2024-09-15T08:26:59.000Z</time>
      </trkpt>
      <trkpt lat="39.580329" lon="-84.741776">
        <ele>299.563969</ele>
        <time>2024-09-15T08:27:11.000Z</time>
      </trkpt>
      <trkpt lat="39.579662" lon="-84.741087">
        <ele>299.524654</ele>
        <time>2024-09-15T08:27:20.000Z</time>
      </trkpt>
      <trkpt lat="39.579398" lon="-84.740599">
        <ele>299.503734</ele>
        <time>2024-09-15T08:27:25.000Z</time>
      </trkpt>
      <trkpt lat="39.579291" lon="-84.740221">
        <ele>299.489182</ele>
        <time>2024-09-15T08:27:28.000Z</time>
      </trkpt>
      <trkpt lat="39.579175" lon="-84.739089">
        <ele>298.9389</ele>
        <time>2024-09-15T08:27:38.000Z</time>
      </trkpt>
      <trkpt lat="39.579051" lon="-84.738658">
        <ele>298.700902</ele>
        <time>2024-09-15T08:27:42.000Z</time>
      </trkpt>
      <trkpt lat="39.578917" lon="-84.738365">
        <ele>298.518952</ele>
        <time>2024-09-15T08:27:45.000Z</time>
      </trkpt>
      <trkpt lat="39.578408" lon="-84.737643">
        <ele>298.072294</ele>
        <time>2024-09-15T08:27:53.000Z</time>
      </trkpt>
      <trkpt lat="39.577806" lon="-84.736561">
        <ele>297.550698</ele>
        <time>2024-09-15T08:28:04.000Z</time>
      </trkpt>
      <trkpt lat="39.577354" lon="-84.735847">
        <ele>297.518946</ele>
        <time>2024-09-15T08:28:12.000Z</time>
      </trkpt>
      <trkpt lat="39.577155" lon="-84.735248">
        <ele>297.812101</ele>
        <time>2024-09-15T08:28:18.000Z</time>
      </trkpt>
      <trkpt lat="39.57712" lon="-84.734947">
        <ele>297.943987</ele>
        <time>2024-09-15T08:28:21.000Z</time>
      </trkpt>
      <trkpt lat="39.577189" lon="-84.734383">
        <ele>298.192754</ele>
        <time>2024-09-15T08:28:26.000Z</time>
      </trkpt>
      <trkpt lat="39.577222" lon="-84.734266">
        <ele>298.252701</ele>
        <time>2024-09-15T08:28:27.000Z</time>
      </trkpt>
      <trkpt lat="39.577401" lon="-84.73342">
        <ele>298.908641</ele>
        <time>2024-09-15T08:28:35.000Z</time>
      </trkpt>
      <trkpt lat="39.57778" lon="-84.732251">
        <ele>300.032076</ele>
        <time>2024-09-15T08:28:46.000Z</time>
      </trkpt>
      <trkpt lat="39.577904" lon="-84.731887">
        <ele>300.372475</ele>
        <time>2024-09-15T08:28:49.000Z</time>
      </trkpt>
      <trkpt lat="39.577976" lon="-84.731525">
        <ele>300.693856</ele>
        <time>2024-09-15T08:28:52.000Z</time>
      </trkpt>
      <trkpt lat="39.577975" lon="-84.731137">
        <ele>301.028897</ele>
        <time>2024-09-15T08:28:55.000Z</time>
      </trkpt>
      <trkpt lat="39.577846" lon="-84.730635">
        <ele>301.473398</ele>
        <time>2024-09-15T08:29:00.000Z</time>
      </trkpt>
      <trkpt lat="39.577541" lon="-84.729937">
        <ele>302.149199</ele>
        <time>2024-09-15T08:29:07.000Z</time>
      </trkpt>
      <trkpt lat="39.57733" lon="-84.729479">
        <ele>302.724119</ele>
        <time>2024-09-15T08:29:12.000Z</time>
      </trkpt>
      <trkpt lat="39.577234" lon="-84.729057">
        <ele>303.373123</ele>
        <time>2024-09-15T08:29:16.000Z</time>
      </trkpt>
      <trkpt lat="39.577141" lon="-84.728287">
        <ele>304.486275</ele>
        <time>2024-09-15T08:29:23.000Z</time>
      </trkpt>
      <trkpt lat="39.576996" lon="-84.727811">
        <ele>305.224103</ele>
        <time>2024-09-15T08:29:27.000Z</time>
      </trkpt>
      <trkpt lat="39.57667" lon="-84.727296">
        <ele>305.927692</ele>
        <time>2024-09-15T08:29:33.000Z</time>
      </trkpt>
      <trkpt lat="39.576661" lon="-84.727286">
        <ele>305.938255</ele>
        <time>2024-09-15T08:29:33.000Z</time>
      </trkpt>
      <trkpt lat="39.576368" lon="-84.727032">
        <ele>306.192676</ele>
        <time>2024-09-15T08:29:37.000Z</time>
      </trkpt>
      <trkpt lat="39.576079" lon="-84.726861">
        <ele>306.415822</ele>
        <time>2024-09-15T08:29:41.000Z</time>
      </trkpt>
      <trkpt lat="39.575731" lon="-84.72677">
        <ele>306.676404</ele>
        <time>2024-09-15T08:29:45.000Z</time>
      </trkpt>
      <trkpt lat="39.574864" lon="-84.726767">
        <ele>306.409892</ele>
        <time>2024-09-15T08:29:55.000Z</time>
      </trkpt>
      <trkpt lat="39.574029" lon="-84.726821">
        <ele>304.695551</ele>
        <time>2024-09-15T08:30:04.000Z</time>
      </trkpt>
      <trkpt lat="39.573548" lon="-84.726974">
        <ele>303.681624</ele>
        <time>2024-09-15T08:30:10.000Z</time>
      </trkpt>
      <trkpt lat="39.572637" lon="-84.726805">
        <ele>302.165276</ele>
        <time>2024-09-15T08:30:20.000Z</time>
      </trkpt>
      <trkpt lat="39.572285" lon="-84.726817">
        <ele>301.631431</ele>
        <time>2024-09-15T08:30:24.000Z</time>
      </trkpt>
      <trkpt lat="39.571887" lon="-84.726873">
        <ele>301.002805</ele>
        <time>2024-09-15T08:30:28.000Z</time>
      </trkpt>
      <trkpt lat="39.571292" lon="-84.727149">
        <ele>300.755969</ele>
        <time>2024-09-15T08:30:35.000Z</time>
      </trkpt>
      <trkpt lat="39.570963" lon="-84.727202">
        <ele>300.922418</ele>
        <time>2024-09-15T08:30:39.000Z</time>
      </trkpt>
      <trkpt lat="39.569471" lon="-84.727343">
        <ele>301.685686</ele>
        <time>2024-09-15T08:30:56.000Z</time>
      </trkpt>
      <trkpt lat="39.569065" lon="-84.727436">
        <ele>301.906976</ele>
        <time>2024-09-15T08:31:01.000Z</time>
      </trkpt>
      <trkpt lat="39.567692" lon="-84.727509">
        <ele>302.439792</ele>
        <time>2024-09-15T08:31:16.000Z</time>
      </trkpt>
      <trkpt lat="39.567308" lon="-84.727669">
        <ele>302.444166</ele>
        <time>2024-09-15T08:31:20.000Z</time>
      </trkpt>
      <trkpt lat="39.567092" lon="-84.727966">
        <ele>302.447788</ele>
        <time>2024-09-15T08:31:23.000Z</time>
      </trkpt>
      <trkpt lat="39.566981" lon="-84.728404">
        <ele>302.451685</ele>
        <time>2024-09-15T08:31:27.000Z</time>
      </trkpt>
      <trkpt lat="39.566978" lon="-84.728948">
        <ele>302.415775</ele>
        <time>2024-09-15T08:31:32.000Z</time>
      </trkpt>
      <trkpt lat="39.567089" lon="-84.729808">
        <ele>302.03035</ele>
        <time>2024-09-15T08:31:39.000Z</time>
      </trkpt>
      <trkpt lat="39.566996" lon="-84.730205">
        <ele>301.848507</ele>
        <time>2024-09-15T08:31:43.000Z</time>
      </trkpt>
      <trkpt lat="39.566798" lon="-84.730538">
        <ele>301.665085</ele>
        <time>2024-09-15T08:31:47.000Z</time>
      </trkpt>
      <trkpt lat="39.566354" lon="-84.730837">
        <ele>301.363811</ele>
        <time>2024-09-15T08:31:53.000Z</time>
      </trkpt>
      <trkpt lat="39.566142" lon="-84.731076">
        <ele>301.130058</ele>
        <time>2024-09-15T08:31:56.000Z</time>
      </trkpt>
      <trkpt lat="39.56559" lon="-84.732699">
        <ele>300.026918</ele>
        <time>2024-09-15T08:32:11.000Z</time>
      </trkpt>
      <trkpt lat="39.56545" lon="-84.733015">
        <ele>299.814991</ele>
        <time>2024-09-15T08:32:14.000Z</time>
      </trkpt>
      <trkpt lat="39.565075" lon="-84.733315">
        <ele>299.493845</ele>
        <time>2024-09-15T08:32:19.000Z</time>
      </trkpt>
      <trkpt lat="39.564782" lon="-84.733438">
        <ele>299.252134</ele>
        <time>2024-09-15T08:32:22.000Z</time>
      </trkpt>
      <trkpt lat="39.563655" lon="-84.733391">
        <ele>298.21929</ele>
        <time>2024-09-15T08:32:35.000Z</time>
      </trkpt>
      <trkpt lat="39.562773" lon="-84.733621">
        <ele>296.959285</ele>
        <time>2024-09-15T08:32:45.000Z</time>
      </trkpt>
      <trkpt lat="39.560933" lon="-84.733484">
        <ele>293.922429</ele>
        <time>2024-09-15T08:33:05.000Z</time>
      </trkpt>
      <trkpt lat="39.560634" lon="-84.733271">
        <ele>293.312357</ele>
        <time>2024-09-15T08:33:09.000Z</time>
      </trkpt>
      <trkpt lat="39.560065" lon="-84.732303">
        <ele>290.903969</ele>
        <time>2024-09-15T08:33:19.000Z</time>
      </trkpt>
      <trkpt lat="39.559884" lon="-84.732081">
        <ele>290.20889</ele>
        <time>2024-09-15T08:33:22.000Z</time>
      </trkpt>
      <trkpt lat="39.559662" lon="-84.731928">
        <ele>289.501483</ele>
        <time>2024-09-15T08:33:25.000Z</time>
      </trkpt>
      <trkpt lat="39.558718" lon="-84.73174">
        <ele>286.389489</ele>
        <time>2024-09-15T08:33:36.000Z</time>
      </trkpt>
      <trkpt lat="39.557637" lon="-84.731342">
        <ele>281.763819</ele>
        <time>2024-09-15T08:33:49.000Z</time>
      </trkpt>
      <trkpt lat="39.555872" lon="-84.731272">
        <ele>275.878254</ele>
        <time>2024-09-15T08:34:09.000Z</time>
      </trkpt>
      <trkpt lat="39.554933" lon="-84.731748">
        <ele>271.554436</ele>
        <time>2024-09-15T08:34:20.000Z</time>
      </trkpt>
      <trkpt lat="39.554571" lon="-84.732038">
        <ele>269.470854</ele>
        <time>2024-09-15T08:34:25.000Z</time>
      </trkpt>
      <trkpt lat="39.554275" lon="-84.73243">
        <ele>267.434684</ele>
        <time>2024-09-15T08:34:30.000Z</time>
      </trkpt>
      <trkpt lat="39.553522" lon="-84.733927">
        <ele>259.346701</ele>
        <time>2024-09-15T08:34:45.000Z</time>
      </trkpt>
      <trkpt lat="39.55349" lon="-84.734377">
        <ele>257.177872</ele>
        <time>2024-09-15T08:34:49.000Z</time>
      </trkpt>
      <trkpt lat="39.553596" lon="-84.734816">
        <ele>255.021495</ele>
        <time>2024-09-15T08:34:53.000Z</time>
      </trkpt>
      <trkpt lat="39.553692" lon="-84.735266">
        <ele>254.623388</ele>
        <time>2024-09-15T08:34:57.000Z</time>
      </trkpt>
      <trkpt lat="39.553766" lon="-84.735571">
        <ele>254.364325</ele>
        <time>2024-09-15T08:35:00.000Z</time>
      </trkpt>
      <trkpt lat="39.554191" lon="-84.737609">
        <ele>254.3366</ele>
        <time>2024-09-15T08:35:18.000Z</time>
      </trkpt>
      <trkpt lat="39.55448" lon="-84.738601">
        <ele>256.745767</ele>
        <time>2024-09-15T08:35:27.000Z</time>
      </trkpt>
      <trkpt lat="39.554593" lon="-84.73943">
        <ele>259.111489</ele>
        <time>2024-09-15T08:35:34.000Z</time>
      </trkpt>
      <trkpt lat="39.554778" lon="-84.742261">
        <ele>274.024435</ele>
        <time>2024-09-15T08:35:58.000Z</time>
      </trkpt>
      <trkpt lat="39.554954" lon="-84.743047">
        <ele>277.807829</ele>
        <time>2024-09-15T08:36:05.000Z</time>
      </trkpt>
      <trkpt lat="39.555358" lon="-84.744371">
        <ele>282.737759</ele>
        <time>2024-09-15T08:36:17.000Z</time>
      </trkpt>
      <trkpt lat="39.555665" lon="-84.7448">
        <ele>283.764637</ele>
        <time>2024-09-15T08:36:22.000Z</time>
      </trkpt>
      <trkpt lat="39.555869" lon="-84.744994">
        <ele>284.358396</ele>
        <time>2024-09-15T08:36:25.000Z</time>
      </trkpt>
      <trkpt lat="39.556142" lon="-84.745172">
        <ele>285.078094</ele>
        <time>2024-09-15T08:36:28.000Z</time>
      </trkpt>
      <trkpt lat="39.557495" lon="-84.745654">
        <ele>286.915197</ele>
        <time>2024-09-15T08:36:44.000Z</time>
      </trkpt>
      <trkpt lat="39.557801" lon="-84.746039">
        <ele>287.324151</ele>
        <time>2024-09-15T08:36:49.000Z</time>
      </trkpt>
      <trkpt lat="39.558245" lon="-84.746798">
        <ele>287.890203</ele>
        <time>2024-09-15T08:36:57.000Z</time>
      </trkpt>
      <trkpt lat="39.558476" lon="-84.746971">
        <ele>288.04022</ele>
        <time>2024-09-15T08:37:00.000Z</time>
      </trkpt>
      <trkpt lat="39.558829" lon="-84.747226">
        <ele>288.276961</ele>
        <time>2024-09-15T08:37:04.000Z</time>
      </trkpt>
      <trkpt lat="39.559269" lon="-84.747375">
        <ele>288.534678</ele>
        <time>2024-09-15T08:37:09.000Z</time>
      </trkpt>
      <trkpt lat="39.559866" lon="-84.747452">
        <ele>288.795236</ele>
        <time>2024-09-15T08:37:16.000Z</time>
      </trkpt>
      <trkpt lat="39.560377" lon="-84.747651">
        <ele>288.954154</ele>
        <time>2024-09-15T08:37:22.000Z</time>
      </trkpt>
      <trkpt lat="39.56074" lon="-84.747921">
        <ele>289.080294</ele>
        <time>2024-09-15T08:37:27.000Z</time>
      </trkpt>
      <trkpt lat="39.560894" lon="-84.748089">
        <ele>289.141804</ele>
        <time>2024-09-15T08:37:29.000Z</time>
      </trkpt>
      <trkpt lat="39.561162" lon="-84.748455">
        <ele>289.244247</ele>
        <time>2024-09-15T08:37:33.000Z</time>
      </trkpt>
      <trkpt lat="39.561378" lon="-84.748917">
        <ele>289.282873</ele>
        <time>2024-09-15T08:37:38.000Z</time>
      </trkpt>
      <trkpt lat="39.561836" lon="-84.749444">
        <ele>289.337343</ele>
        <time>2024-09-15T08:37:45.000Z</time>
      </trkpt>
      <trkpt lat="39.562054" lon="-84.749597">
        <ele>289.359451</ele>
        <time>2024-09-15T08:37:48.000Z</time>
      </trkpt>
      <trkpt lat="39.562547" lon="-84.749711">
        <ele>289.388899</ele>
        <time>2024-09-15T08:37:54.000Z</time>
      </trkpt>
      <trkpt lat="39.563595" lon="-84.749958">
        <ele>288.999385</ele>
        <time>2024-09-15T08:38:06.000Z</time>
      </trkpt>
      <trkpt lat="39.564553" lon="-84.750072">
        <ele>288.617427</ele>
        <time>2024-09-15T08:38:17.000Z</time>
      </trkpt>
      <trkpt lat="39.564852" lon="-84.75022">
        <ele>288.466311</ele>
        <time>2024-09-15T08:38:21.000Z</time>
      </trkpt>
      <trkpt lat="39.56543" lon="-84.750773">
        <ele>288.122866</ele>
        <time>2024-09-15T08:38:29.000Z</time>
      </trkpt>
      <trkpt lat="39.565652" lon="-84.751095">
        <ele>287.96299</ele>
        <time>2024-09-15T08:38:33.000Z</time>
      </trkpt>
      <trkpt lat="39.565914" lon="-84.751611">
        <ele>287.579011</ele>
        <time>2024-09-15T08:38:38.000Z</time>
      </trkpt>
      <trkpt lat="39.566186" lon="-84.751888">
        <ele>287.240561</ele>
        <time>2024-09-15T08:38:42.000Z</time>
      </trkpt>
      <trkpt lat="39.56655" lon="-84.751988">
        <ele>286.883851</ele>
        <time>2024-09-15T08:38:46.000Z</time>
      </trkpt>
      <trkpt lat="39.567076" lon="-84.751821">
        <ele>286.353373</ele>
        <time>2024-09-15T08:38:52.000Z</time>
      </trkpt>
      <trkpt lat="39.56738" lon="-84.751829">
        <ele>286.177572</ele>
        <time>2024-09-15T08:38:55.000Z</time>
      </trkpt>
      <trkpt lat="39.567592" lon="-84.751912">
        <ele>286.323665</ele>
        <time>2024-09-15T08:38:57.000Z</time>
      </trkpt>
      <trkpt lat="39.567768" lon="-84.752095">
        <ele>286.460304</ele>
        <time>2024-09-15T08:39:00.000Z</time>
      </trkpt>
      <trkpt lat="39.567906" lon="-84.752308">
        <ele>286.59345</ele>
        <time>2024-09-15T08:39:02.000Z</time>
      </trkpt>
      <trkpt lat="39.567983" lon="-84.752613">
        <ele>286.751641</ele>
        <time>2024-09-15T08:39:05.000Z</time>
      </trkpt>
      <trkpt lat="39.568002" lon="-84.752895">
        <ele>286.887794</ele>
        <time>2024-09-15T08:39:07.000Z</time>
      </trkpt>
      <trkpt lat="39.567958" lon="-84.753132">
        <ele>287.00645</ele>
        <time>2024-09-15T08:39:09.000Z</time>
      </trkpt>
      <trkpt lat="39.567768" lon="-84.753589">
        <ele>287.2592</ele>
        <time>2024-09-15T08:39:13.000Z</time>
      </trkpt>
      <trkpt lat="39.567645" lon="-84.7541">
        <ele>288.227054</ele>
        <time>2024-09-15T08:39:18.000Z</time>
      </trkpt>
      <trkpt lat="39.567418" lon="-84.756061">
        <ele>291.568234</ele>
        <time>2024-09-15T08:39:35.000Z</time>
      </trkpt>
      <trkpt lat="39.567521" lon="-84.756757">
        <ele>291.943554</ele>
        <time>2024-09-15T08:39:41.000Z</time>
      </trkpt>
      <trkpt lat="39.567718" lon="-84.75728">
        <ele>292.263725</ele>
        <time>2024-09-15T08:39:46.000Z</time>
      </trkpt>
      <trkpt lat="39.567841" lon="-84.75785">
        <ele>292.569964</ele>
        <time>2024-09-15T08:39:51.000Z</time>
      </trkpt>
      <trkpt lat="39.568045" lon="-84.759397">
        <ele>291.140965</ele>
        <time>2024-09-15T08:40:04.000Z</time>
      </trkpt>
      <trkpt lat="39.568064" lon="-84.759687">
        <ele>290.775513</ele>
        <time>2024-09-15T08:40:06.000Z</time>
      </trkpt>
      <trkpt lat="39.568259" lon="-84.760474">
        <ele>289.786944</ele>
        <time>2024-09-15T08:40:13.000Z</time>
      </trkpt>
      <trkpt lat="39.568393" lon="-84.76089">
        <ele>289.289811</ele>
        <time>2024-09-15T08:40:17.000Z</time>
      </trkpt>
      <trkpt lat="39.5687" lon="-84.761483">
        <ele>288.527133</ele>
        <time>2024-09-15T08:40:23.000Z</time>
      </trkpt>
      <trkpt lat="39.568916" lon="-84.761752">
        <ele>288.105932</ele>
        <time>2024-09-15T08:40:26.000Z</time>
      </trkpt>
      <trkpt lat="39.569379" lon="-84.762105">
        <ele>287.352725</ele>
        <time>2024-09-15T08:40:32.000Z</time>
      </trkpt>
      <trkpt lat="39.569779" lon="-84.762277">
        <ele>287.39874</ele>
        <time>2024-09-15T08:40:37.000Z</time>
      </trkpt>
      <trkpt lat="39.570118" lon="-84.762335">
        <ele>287.445167</ele>
        <time>2024-09-15T08:40:41.000Z</time>
      </trkpt>
      <trkpt lat="39.570352" lon="-84.76231">
        <ele>287.475185</ele>
        <time>2024-09-15T08:40:44.000Z</time>
      </trkpt>
      <trkpt lat="39.57084" lon="-84.762081">
        <ele>287.54478</ele>
        <time>2024-09-15T08:40:50.000Z</time>
      </trkpt>
      <trkpt lat="39.571138" lon="-84.762048">
        <ele>287.583908</ele>
        <time>2024-09-15T08:40:53.000Z</time>
      </trkpt>
      <trkpt lat="39.571869" lon="-84.762331">
        <ele>287.644378</ele>
        <time>2024-09-15T08:41:01.000Z</time>
      </trkpt>
      <trkpt lat="39.572372" lon="-84.762403">
        <ele>287.68301</ele>
        <time>2024-09-15T08:41:07.000Z</time>
      </trkpt>
      <trkpt lat="39.572682" lon="-84.762433">
        <ele>287.707538</ele>
        <time>2024-09-15T08:41:10.000Z</time>
      </trkpt>
      <trkpt lat="39.573613" lon="-84.762129">
        <ele>287.42531</ele>
        <time>2024-09-15T08:41:21.000Z</time>
      </trkpt>
      <trkpt lat="39.574294" lon="-84.762149">
        <ele>287.149688</ele>
        <time>2024-09-15T08:41:29.000Z</time>
      </trkpt>
      <trkpt lat="39.574332" lon="-84.762143">
        <ele>287.134527</ele>
        <time>2024-09-15T08:41:29.000Z</time>
      </trkpt>
      <trkpt lat="39.574664" lon="-84.762025">
        <ele>287.015793</ele>
        <time>2024-09-15T08:41:33.000Z</time>
      </trkpt>
      <trkpt lat="39.574964" lon="-84.761967">
        <ele>287.063631</ele>
        <time>2024-09-15T08:41:36.000Z</time>
      </trkpt>
      <trkpt lat="39.575498" lon="-84.762154">
        <ele>287.153477</ele>
        <time>2024-09-15T08:41:42.000Z</time>
      </trkpt>
      <trkpt lat="39.575762" lon="-84.762168">
        <ele>287.194264</ele>
        <time>2024-09-15T08:41:45.000Z</time>
      </trkpt>
      <trkpt lat="39.576408" lon="-84.761911">
        <ele>287.313914</ele>
        <time>2024-09-15T08:41:53.000Z</time>
      </trkpt>
      <trkpt lat="39.576904" lon="-84.761837">
        <ele>287.753686</ele>
        <time>2024-09-15T08:41:59.000Z</time>
      </trkpt>
      <trkpt lat="39.57712" lon="-84.761956">
        <ele>287.96673</ele>
        <time>2024-09-15T08:42:02.000Z</time>
      </trkpt>
      <trkpt lat="39.577368" lon="-84.762444">
        <ele>288.372745</ele>
        <time>2024-09-15T08:42:07.000Z</time>
      </trkpt>
      <trkpt lat="39.577577" lon="-84.763103">
        <ele>288.857069</ele>
        <time>2024-09-15T08:42:13.000Z</time>
      </trkpt>
      <trkpt lat="39.577729" lon="-84.763327">
        <ele>288.809055</ele>
        <time>2024-09-15T08:42:16.000Z</time>
      </trkpt>
      <trkpt lat="39.577951" lon="-84.763521">
        <ele>288.685249</ele>
        <time>2024-09-15T08:42:19.000Z</time>
      </trkpt>
      <trkpt lat="39.578173" lon="-84.763586">
        <ele>288.576893</ele>
        <time>2024-09-15T08:42:22.000Z</time>
      </trkpt>
      <trkpt lat="39.578762" lon="-84.763555">
        <ele>288.2947</ele>
        <time>2024-09-15T08:42:29.000Z</time>
      </trkpt>
      <trkpt lat="39.57898" lon="-84.763852">
        <ele>288.150636</ele>
        <time>2024-09-15T08:42:33.000Z</time>
      </trkpt>
      <trkpt lat="39.579104" lon="-84.764356">
        <ele>287.458924</ele>
        <time>2024-09-15T08:42:38.000Z</time>
      </trkpt>
      <trkpt lat="39.579448" lon="-84.765032">
        <ele>285.692646</ele>
        <time>2024-09-15T08:42:45.000Z</time>
      </trkpt>
      <trkpt lat="39.579563" lon="-84.765442">
        <ele>284.688878</ele>
        <time>2024-09-15T08:42:49.000Z</time>
      </trkpt>
      <trkpt lat="39.579726" lon="-84.765632">
        <ele>284.094016</ele>
        <time>2024-09-15T08:42:51.000Z</time>
      </trkpt>
      <trkpt lat="39.579878" lon="-84.765621">
        <ele>283.629341</ele>
        <time>2024-09-15T08:42:53.000Z</time>
      </trkpt>
      <trkpt lat="39.580106" lon="-84.765454">
        <ele>282.8948</ele>
        <time>2024-09-15T08:42:56.000Z</time>
      </trkpt>
      <trkpt lat="39.580239" lon="-84.765278">
        <ele>281.857124</ele>
        <time>2024-09-15T08:42:58.000Z</time>
      </trkpt>
      <trkpt lat="39.580518" lon="-84.7646">
        <ele>278.478499</ele>
        <time>2024-09-15T08:43:05.000Z</time>
      </trkpt>
      <trkpt lat="39.580643" lon="-84.76444">
        <ele>277.471509</ele>
        <time>2024-09-15T08:43:07.000Z</time>
      </trkpt>
      <trkpt lat="39.580874" lon="-84.764236">
        <ele>275.809346</ele>
        <time>2024-09-15T08:43:10.000Z</time>
      </trkpt>
      <trkpt lat="39.581109" lon="-84.764187">
        <ele>274.506605</ele>
        <time>2024-09-15T08:43:13.000Z</time>
      </trkpt>
      <trkpt lat="39.581334" lon="-84.764248">
        <ele>273.184277</ele>
        <time>2024-09-15T08:43:16.000Z</time>
      </trkpt>
      <trkpt lat="39.581463" lon="-84.76434">
        <ele>272.385686</ele>
        <time>2024-09-15T08:43:18.000Z</time>
      </trkpt>
      <trkpt lat="39.581635" lon="-84.764588">
        <ele>271.310839</ele>
        <time>2024-09-15T08:43:21.000Z</time>
      </trkpt>
      <trkpt lat="39.581918" lon="-84.765082">
        <ele>269.274264</ele>
        <time>2024-09-15T08:43:26.000Z</time>
      </trkpt>
      <trkpt lat="39.582134" lon="-84.765187">
        <ele>268.273233</ele>
        <time>2024-09-15T08:43:29.000Z</time>
      </trkpt>
      <trkpt lat="39.582388" lon="-84.765198">
        <ele>267.229441</ele>
        <time>2024-09-15T08:43:32.000Z</time>
      </trkpt>
      <trkpt lat="39.583055" lon="-84.765085">
        <ele>264.798199</ele>
        <time>2024-09-15T08:43:39.000Z</time>
      </trkpt>
      <trkpt lat="39.58349" lon="-84.765222">
        <ele>264.615662</ele>
        <time>2024-09-15T08:43:44.000Z</time>
      </trkpt>
      <trkpt lat="39.583616" lon="-84.765375">
        <ele>264.548608</ele>
        <time>2024-09-15T08:43:46.000Z</time>
      </trkpt>
      <trkpt lat="39.583954" lon="-84.76575">
        <ele>264.361109</ele>
        <time>2024-09-15T08:43:51.000Z</time>
      </trkpt>
      <trkpt lat="39.585187" lon="-84.767208">
        <ele>264.160292</ele>
        <time>2024-09-15T08:44:10.000Z</time>
      </trkpt>
      <trkpt lat="39.585528" lon="-84.767631">
        <ele>264.180528</ele>
        <time>2024-09-15T08:44:15.000Z</time>
      </trkpt>
      <trkpt lat="39.585726" lon="-84.767872">
        <ele>264.191462</ele>
        <time>2024-09-15T08:44:18.000Z</time>
      </trkpt>
      <trkpt lat="39.585849" lon="-84.767961">
        <ele>264.172896</ele>
        <time>2024-09-15T08:44:20.000Z</time>
      </trkpt>
      <trkpt lat="39.585919" lon="-84.767958">
        <ele>264.164473</ele>
        <time>2024-09-15T08:44:21.000Z</time>
      </trkpt>
      <trkpt lat="39.586199" lon="-84.767925">
        <ele>264.12967</ele>
        <time>2024-09-15T08:44:24.000Z</time>
      </trkpt>
      <trkpt lat="39.586727" lon="-84.767831">
        <ele>264.062057</ele>
        <time>2024-09-15T08:44:30.000Z</time>
      </trkpt>
      <trkpt lat="39.586916" lon="-84.767754">
        <ele>264.038121</ele>
        <time>2024-09-15T08:44:32.000Z</time>
      </trkpt>
      <trkpt lat="39.587031" lon="-84.767692">
        <ele>264.022108</ele>
        <time>2024-09-15T08:44:33.000Z</time>
      </trkpt>
      <trkpt lat="39.58766" lon="-84.767312">
        <ele>264.299917</ele>
        <time>2024-09-15T08:44:41.000Z</time>
      </trkpt>
      <trkpt lat="39.588151" lon="-84.766738">
        <ele>265.189038</ele>
        <time>2024-09-15T08:44:48.000Z</time>
      </trkpt>
      <trkpt lat="39.588517" lon="-84.76618">
        <ele>265.929745</ele>
        <time>2024-09-15T08:44:54.000Z</time>
      </trkpt>
      <trkpt lat="39.589019" lon="-84.764908">
        <ele>268.573378</ele>
        <time>2024-09-15T08:45:06.000Z</time>
      </trkpt>
      <trkpt lat="39.589246" lon="-84.764625">
        <ele>269.485305</ele>
        <time>2024-09-15T08:45:10.000Z</time>
      </trkpt>
      <trkpt lat="39.589638" lon="-84.764334">
        <ele>270.727923</ele>
        <time>2024-09-15T08:45:15.000Z</time>
      </trkpt>
      <trkpt lat="39.590346" lon="-84.764143">
        <ele>273.808558</ele>
        <time>2024-09-15T08:45:23.000Z</time>
      </trkpt>
      <trkpt lat="39.590829" lon="-84.763908">
        <ele>276.476228</ele>
        <time>2024-09-15T08:45:29.000Z</time>
      </trkpt>
      <trkpt lat="39.591129" lon="-84.763688">
        <ele>278.20426</ele>
        <time>2024-09-15T08:45:33.000Z</time>
      </trkpt>
      <trkpt lat="39.591608" lon="-84.763141">
        <ele>281.374175</ele>
        <time>2024-09-15T08:45:40.000Z</time>
      </trkpt>
      <trkpt lat="39.592131" lon="-84.762116">
        <ele>285.784757</ele>
        <time>2024-09-15T08:45:51.000Z</time>
      </trkpt>
      <trkpt lat="39.592355" lon="-84.761834">
        <ele>287.230128</ele>
        <time>2024-09-15T08:45:54.000Z</time>
      </trkpt>
      <trkpt lat="39.59265" lon="-84.761536">
        <ele>289.001985</ele>
        <time>2024-09-15T08:45:58.000Z</time>
      </trkpt>
      <trkpt lat="39.592825" lon="-84.761283">
        <ele>288.619875</ele>
        <time>2024-09-15T08:46:01.000Z</time>
      </trkpt>
      <trkpt lat="39.592894" lon="-84.760481">
        <ele>287.750809</ele>
        <time>2024-09-15T08:46:08.000Z</time>
      </trkpt>
      <trkpt lat="39.592896" lon="-84.760335">
        <ele>287.584631</ele>
        <time>2024-09-15T08:46:09.000Z</time>
      </trkpt>
      <trkpt lat="39.592781" lon="-84.759704">
        <ele>286.861451</ele>
        <time>2024-09-15T08:46:15.000Z</time>
      </trkpt>
      <trkpt lat="39.592423" lon="-84.758494">
        <ele>282.361152</ele>
        <time>2024-09-15T08:46:26.000Z</time>
      </trkpt>
      <trkpt lat="39.592307" lon="-84.757989">
        <ele>279.974455</ele>
        <time>2024-09-15T08:46:31.000Z</time>
      </trkpt>
      <trkpt lat="39.592235" lon="-84.756556">
        <ele>274.432431</ele>
        <time>2024-09-15T08:46:43.000Z</time>
      </trkpt>
      <trkpt lat="39.592176" lon="-84.756119">
        <ele>273.188455</ele>
        <time>2024-09-15T08:46:47.000Z</time>
      </trkpt>
      <trkpt lat="39.592112" lon="-84.755998">
        <ele>272.788835</ele>
        <time>2024-09-15T08:46:48.000Z</time>
      </trkpt>
      <trkpt lat="39.591925" lon="-84.755829">
        <ele>271.925855</ele>
        <time>2024-09-15T08:46:51.000Z</time>
      </trkpt>
      <trkpt lat="39.591362" lon="-84.755781">
        <ele>269.89717</ele>
        <time>2024-09-15T08:46:57.000Z</time>
      </trkpt>
      <trkpt lat="39.591094" lon="-84.75554">
        <ele>269.350883</ele>
        <time>2024-09-15T08:47:01.000Z</time>
      </trkpt>
      <trkpt lat="39.590686" lon="-84.754466">
        <ele>269.235219</ele>
        <time>2024-09-15T08:47:11.000Z</time>
      </trkpt>
      <trkpt lat="39.590487" lon="-84.754008">
        <ele>269.18289</ele>
        <time>2024-09-15T08:47:16.000Z</time>
      </trkpt>
      <trkpt lat="39.590313" lon="-84.753718">
        <ele>269.147085</ele>
        <time>2024-09-15T08:47:19.000Z</time>
      </trkpt>
      <trkpt lat="39.589666" lon="-84.753031">
        <ele>270.325884</ele>
        <time>2024-09-15T08:47:28.000Z</time>
      </trkpt>
      <trkpt lat="39.589408" lon="-84.752469">
        <ele>271.048504</ele>
        <time>2024-09-15T08:47:34.000Z</time>
      </trkpt>
      <trkpt lat="39.589325" lon="-84.751984">
        <ele>271.58804</ele>
        <time>2024-09-15T08:47:38.000Z</time>
      </trkpt>
      <trkpt lat="39.589292" lon="-84.751428">
        <ele>273.416592</ele>
        <time>2024-09-15T08:47:43.000Z</time>
      </trkpt>
      <trkpt lat="39.589323" lon="-84.75114">
        <ele>274.481798</ele>
        <time>2024-09-15T08:47:45.000Z</time>
      </trkpt>
      <trkpt lat="39.589865" lon="-84.749489">
        <ele>281.203051</ele>
        <time>2024-09-15T08:48:00.000Z</time>
      </trkpt>
      <trkpt lat="39.589926" lon="-84.74893">
        <ele>283.257852</ele>
        <time>2024-09-15T08:48:05.000Z</time>
      </trkpt>
      <trkpt lat="39.589923" lon="-84.747826">
        <ele>287.243184</ele>
        <time>2024-09-15T08:48:14.000Z</time>
      </trkpt>
      <trkpt lat="39.589968" lon="-84.747353">
        <ele>288.973483</ele>
        <time>2024-09-15T08:48:18.000Z</time>
      </trkpt>
      <trkpt lat="39.589911" lon="-84.746571">
        <ele>290.856683</ele>
        <time>2024-09-15T08:48:25.000Z</time>
      </trkpt>
      <trkpt lat="39.589789" lon="-84.746138">
        <ele>291.922702</ele>
        <time>2024-09-15T08:48:29.000Z</time>
      </trkpt>
      <trkpt lat="39.589427" lon="-84.745289">
        <ele>294.220674</ele>
        <time>2024-09-15T08:48:37.000Z</time>
      </trkpt>
      <trkpt lat="39.588705" lon="-84.744303">
        <ele>296.436081</ele>
        <time>2024-09-15T08:48:49.000Z</time>
      </trkpt>
      <trkpt lat="39.588193" lon="-84.743849">
        <ele>297.715279</ele>
        <time>2024-09-15T08:48:56.000Z</time>
      </trkpt>
      <trkpt lat="39.587563" lon="-84.743437">
        <ele>298.588606</ele>
        <time>2024-09-15T08:49:04.000Z</time>
      </trkpt>
      <trkpt lat="39.586784" lon="-84.743198">
        <ele>299.334552</ele>
        <time>2024-09-15T08:49:13.000Z</time>
      </trkpt>
      <trkpt lat="39.58496" lon="-84.743116">
        <ele>299.972445</ele>
        <time>2024-09-15T08:49:33.000Z</time>
      </trkpt>
      <trkpt lat="39.583276" lon="-84.743041">
        <ele>299.732223</ele>
        <time>2024-09-15T08:49:52.000Z</time>
      </trkpt>
      <trkpt lat="39.582322" lon="-84.742862">
        <ele>299.568682</ele>
        <time>2024-09-15T08:50:03.000Z</time>
      </trkpt>
      <trkpt lat="39.581273" lon="-84.742411">
        <ele>299.5038</ele>
        <time>2024-09-15T08:50:15.000Z</time>
      </trkpt>
      <trkpt lat="39.58033" lon="-84.741765">
        <ele>299.550336</ele>
        <time>2024-09-15T08:50:27.000Z</time>
      </trkpt>
      <trkpt lat="39.579649" lon="-84.741097">
        <ele>299.623954</ele>
        <time>2024-09-15T08:50:36.000Z</time>
      </trkpt>
      <trkpt lat="39.579406" lon="-84.740601">
        <ele>299.516118</ele>
        <time>2024-09-15T08:50:41.000Z</time>
      </trkpt>
      <trkpt lat="39.579283" lon="-84.740215">
        <ele>299.366405</ele>
        <time>2024-09-15T08:50:45.000Z</time>
      </trkpt>
      <trkpt lat="39.579157" lon="-84.739081">
        <ele>298.948171</ele>
        <time>2024-09-15T08:50:55.000Z</time>
      </trkpt>
      <trkpt lat="39.579047" lon="-84.738657">
        <ele>298.780178</ele>
        <time>2024-09-15T08:50:59.000Z</time>
      </trkpt>
      <trkpt lat="39.578903" lon="-84.738368">
        <ele>298.589083</ele>
        <time>2024-09-15T08:51:02.000Z</time>
      </trkpt>
      <trkpt lat="39.578406" lon="-84.737639">
        <ele>298.053481</ele>
        <time>2024-09-15T08:51:10.000Z</time>
      </trkpt>
      <trkpt lat="39.57781" lon="-84.736562">
        <ele>297.536288</ele>
        <time>2024-09-15T08:51:21.000Z</time>
      </trkpt>
      <trkpt lat="39.577357" lon="-84.735855">
        <ele>297.640765</ele>
        <time>2024-09-15T08:51:29.000Z</time>
      </trkpt>
      <trkpt lat="39.577147" lon="-84.735253">
        <ele>297.716126</ele>
        <time>2024-09-15T08:51:35.000Z</time>
      </trkpt>
      <trkpt lat="39.577129" lon="-84.734944">
        <ele>297.750015</ele>
        <time>2024-09-15T08:51:38.000Z</time>
      </trkpt>
      <trkpt lat="39.577192" lon="-84.734391">
        <ele>298.130952</ele>
        <time>2024-09-15T08:51:43.000Z</time>
      </trkpt>
      <trkpt lat="39.577229" lon="-84.734257">
        <ele>298.244597</ele>
        <time>2024-09-15T08:51:44.000Z</time>
      </trkpt>
      <trkpt lat="39.577406" lon="-84.733411">
        <ele>298.977712</ele>
        <time>2024-09-15T08:51:52.000Z</time>
      </trkpt>
      <trkpt lat="39.577792" lon="-84.73225">
        <ele>300.028036</ele>
        <time>2024-09-15T08:52:03.000Z</time>
      </trkpt>
      <trkpt lat="39.577901" lon="-84.731894">
        <ele>300.340361</ele>
        <time>2024-09-15T08:52:06.000Z</time>
      </trkpt>
      <trkpt lat="39.577977" lon="-84.731531">
        <ele>300.647024</ele>
        <time>2024-09-15T08:52:09.000Z</time>
      </trkpt>
      <trkpt lat="39.57797" lon="-84.731129">
        <ele>300.970174</ele>
        <time>2024-09-15T08:52:12.000Z</time>
      </trkpt>
      <trkpt lat="39.577848" lon="-84.730626">
        <ele>301.398901</ele>
        <time>2024-09-15T08:52:17.000Z</time>
      </trkpt>
      <trkpt lat="39.57754" lon="-84.729932">
        <ele>302.261447</ele>
        <time>2024-09-15T08:52:24.000Z</time>
      </trkpt>
      <trkpt lat="39.577333" lon="-84.729471">
        <ele>302.899162</ele>
        <time>2024-09-15T08:52:29.000Z</time>
      </trkpt>
      <trkpt lat="39.577219" lon="-84.729054">
        <ele>303.44311</ele>
        <time>2024-09-15T08:52:33.000Z</time>
      </trkpt>
      <trkpt lat="39.577128" lon="-84.728288">
        <ele>304.376051</ele>
        <time>2024-09-15T08:52:40.000Z</time>
      </trkpt>
      <trkpt lat="39.57699" lon="-84.727804">
        <ele>304.994817</ele>
        <time>2024-09-15T08:52:44.000Z</time>
      </trkpt>
      <trkpt lat="39.576667" lon="-84.727301">
        <ele>305.791583</ele>
        <time>2024-09-15T08:52:50.000Z</time>
      </trkpt>
      <trkpt lat="39.576652" lon="-84.727295">
        <ele>305.814607</ele>
        <time>2024-09-15T08:52:50.000Z</time>
      </trkpt>
      <trkpt lat="39.576363" lon="-84.727035">
        <ele>306.368511</ele>
        <time>2024-09-15T08:52:54.000Z</time>
      </trkpt>
      <trkpt lat="39.576085" lon="-84.726867">
        <ele>306.854304</ele>
        <time>2024-09-15T08:52:57.000Z</time>
      </trkpt>
      <trkpt lat="39.575732" lon="-84.726773">
        <ele>307.114466</ele>
        <time>2024-09-15T08:53:01.000Z</time>
      </trkpt>
      <trkpt lat="39.574856" lon="-84.726769">
        <ele>306.044045</ele>
        <time>2024-09-15T08:53:11.000Z</time>
      </trkpt>
      <trkpt lat="39.574025" lon="-84.726814">
        <ele>304.991708</ele>
        <time>2024-09-15T08:53:20.000Z</time>
      </trkpt>
      <trkpt lat="39.573544" lon="-84.72697">
        <ele>303.901196</ele>
        <time>2024-09-15T08:53:26.000Z</time>
      </trkpt>
      <trkpt lat="39.572632" lon="-84.726809">
        <ele>301.872176</ele>
        <time>2024-09-15T08:53:36.000Z</time>
      </trkpt>
      <trkpt lat="39.572282" lon="-84.726811">
        <ele>301.124858</ele>
        <time>2024-09-15T08:53:40.000Z</time>
      </trkpt>
      <trkpt lat="39.571899" lon="-84.726876">
        <ele>301.05421</ele>
        <time>2024-09-15T08:53:44.000Z</time>
      </trkpt>
      <trkpt lat="39.571278" lon="-84.727142">
        <ele>301.020503</ele>
        <time>2024-09-15T08:53:51.000Z</time>
      </trkpt>
      <trkpt lat="39.570953" lon="-84.727215">
        <ele>301.003401</ele>
        <time>2024-09-15T08:53:55.000Z</time>
      </trkpt>
      <trkpt lat="39.569488" lon="-84.727343">
        <ele>301.676489</ele>
        <time>2024-09-15T08:54:11.000Z</time>
      </trkpt>
      <trkpt lat="39.569061" lon="-84.727432">
        <ele>301.960234</ele>
        <time>2024-09-15T08:54:16.000Z</time>
      </trkpt>
      <trkpt lat="39.567682" lon="-84.727511">
        <ele>302.41231</ele>
        <time>2024-09-15T08:54:31.000Z</time>
      </trkpt>
      <trkpt lat="39.567319" lon="-84.72768">
        <ele>302.494358</ele>
        <time>2024-09-15T08:54:35.000Z</time>
      </trkpt>
      <trkpt lat="39.567083" lon="-84.727977">
        <ele>302.562469</ele>
        <time>2024-09-15T08:54:39.000Z</time>
      </trkpt>
      <trkpt lat="39.566971" lon="-84.728404">
        <ele>302.46311</ele>
        <time>2024-09-15T08:54:43.000Z</time>
      </trkpt>
      <trkpt lat="39.566982" lon="-84.728955">
        <ele>302.307014</ele>
        <time>2024-09-15T08:54:48.000Z</time>
      </trkpt>
      <trkpt lat="39.567094" lon="-84.729821">
        <ele>302.059384</ele>
        <time>2024-09-15T08:54:56.000Z</time>
      </trkpt>
      <trkpt lat="39.56701" lon="-84.730204">
        <ele>301.942564</ele>
        <time>2024-09-15T08:54:59.000Z</time>
      </trkpt>
      <trkpt lat="39.566795" lon="-84.730528">
        <ele>301.722893</ele>
        <time>2024-09-15T08:55:03.000Z</time>
      </trkpt>
      <trkpt lat="39.566363" lon="-84.730833">
        <ele>301.328571</ele>
        <time>2024-09-15T08:55:08.000Z</time>
      </trkpt>
      <trkpt lat="39.566148" lon="-84.731083">
        <ele>301.097604</ele>
        <time>2024-09-15T08:55:11.000Z</time>
      </trkpt>
      <trkpt lat="39.565601" lon="-84.732704">
        <ele>300.04749</ele>
        <time>2024-09-15T08:55:26.000Z</time>
      </trkpt>
      <trkpt lat="39.565452" lon="-84.733023">
        <ele>299.843793</ele>
        <time>2024-09-15T08:55:29.000Z</time>
      </trkpt>
      <trkpt lat="39.565076" lon="-84.733297">
        <ele>299.529305</ele>
        <time>2024-09-15T08:55:34.000Z</time>
      </trkpt>
      <trkpt lat="39.564782" lon="-84.733437">
        <ele>299.292631</ele>
        <time>2024-09-15T08:55:37.000Z</time>
      </trkpt>
      <trkpt lat="39.563643" lon="-84.733392">
        <ele>298.126809</ele>
        <time>2024-09-15T08:55:50.000Z</time>
      </trkpt>
      <trkpt lat="39.562763" lon="-84.733617">
        <ele>297.118603</ele>
        <time>2024-09-15T08:56:00.000Z</time>
      </trkpt>
      <trkpt lat="39.560927" lon="-84.733468">
        <ele>293.899897</ele>
        <time>2024-09-15T08:56:20.000Z</time>
      </trkpt>
      <trkpt lat="39.560625" lon="-84.73327">
        <ele>293.148841</ele>
        <time>2024-09-15T08:56:24.000Z</time>
      </trkpt>
      <trkpt lat="39.560059" lon="-84.732289">
        <ele>291.108532</ele>
        <time>2024-09-15T08:56:35.000Z</time>
      </trkpt>
      <trkpt lat="39.559881" lon="-84.732069">
        <ele>290.570526</ele>
        <time>2024-09-15T08:56:38.000Z</time>
      </trkpt>
      <trkpt lat="39.559649" lon="-84.731939">
        <ele>289.887355</ele>
        <time>2024-09-15T08:56:41.000Z</time>
      </trkpt>
      <trkpt lat="39.558734" lon="-84.731735">
        <ele>286.133307</ele>
        <time>2024-09-15T08:56:51.000Z</time>
      </trkpt>
      <trkpt lat="39.557638" lon="-84.731352">
        <ele>281.829974</ele>
        <time>2024-09-15T08:57:04.000Z</time>
      </trkpt>
      <trkpt lat="39.555875" lon="-84.731272">
        <ele>275.616429</ele>
        <time>2024-09-15T08:57:24.000Z</time>
      </trkpt>
      <trkpt lat="39.554934" lon="-84.73175">
        <ele>271.826909</ele>
        <time>2024-09-15T08:57:35.000Z</time>
      </trkpt>
      <trkpt lat="39.554568" lon="-84.732036">
        <ele>270.219341</ele>
        <time>2024-09-15T08:57:40.000Z</time>
      </trkpt>
      <trkpt lat="39.554271" lon="-84.73243">
        <ele>267.653252</ele>
        <time>2024-09-15T08:57:45.000Z</time>
      </trkpt>
      <trkpt lat="39.553517" lon="-84.733932">
        <ele>258.728035</ele>
        <time>2024-09-15T08:58:00.000Z</time>
      </trkpt>
      <trkpt lat="39.553491" lon="-84.734386">
        <ele>257.454918</ele>
        <time>2024-09-15T08:58:04.000Z</time>
      </trkpt>
      <trkpt lat="39.553603" lon="-84.734828">
        <ele>256.359108</ele>
        <time>2024-09-15T08:58:08.000Z</time>
      </trkpt>
      <trkpt lat="39.553695" lon="-84.735277">
        <ele>255.242122</ele>
        <time>2024-09-15T08:58:12.000Z</time>
      </trkpt>
      <trkpt lat="39.553767" lon="-84.735565">
        <ele>254.515228</ele>
        <time>2024-09-15T08:58:15.000Z</time>
      </trkpt>
      <trkpt lat="39.554189" lon="-84.737615">
        <ele>254.334085</ele>
        <time>2024-09-15T08:58:33.000Z</time>
      </trkpt>
      <trkpt lat="39.554478" lon="-84.738609">
        <ele>255.9479</ele>
        <time>2024-09-15T08:58:42.000Z</time>
      </trkpt>
      <trkpt lat="39.554593" lon="-84.73944">
        <ele>259.899016</ele>
        <time>2024-09-15T08:58:49.000Z</time>
      </trkpt>
      <trkpt lat="39.554778" lon="-84.742266">
        <ele>274.114846</ele>
        <time>2024-09-15T08:59:13.000Z</time>
      </trkpt>
      <trkpt lat="39.554961" lon="-84.743059">
        <ele>278.53428</ele>
        <time>2024-09-15T08:59:20.000Z</time>
      </trkpt>
      <trkpt lat="39.55537" lon="-84.744377">
        <ele>282.455172</ele>
        <time>2024-09-15T08:59:32.000Z</time>
      </trkpt>
      <trkpt lat="39.55565" lon="-84.744809">
        <ele>284.019948</ele>
        <time>2024-09-15T08:59:37.000Z</time>
      </trkpt>
      <trkpt lat="39.555874" lon="-84.744978">
        <ele>284.924713</ele>
        <time>2024-09-15T08:59:40.000Z</time>
      </trkpt>
      <trkpt lat="39.556148" lon="-84.745154">
        <ele>285.322088</ele>
        <time>2024-09-15T08:59:43.000Z</time>
      </trkpt>
      <trkpt lat="39.557493" lon="-84.745663">
        <ele>286.952052</ele>
        <time>2024-09-15T08:59:59.000Z</time>
      </trkpt>
      <trkpt lat="39.557792" lon="-84.746021">
        <ele>287.312213</ele>
        <time>2024-09-15T09:00:04.000Z</time>
      </trkpt>
      <trkpt lat="39.558245" lon="-84.746801">
        <ele>287.865571</ele>
        <time>2024-09-15T09:00:12.000Z</time>
      </trkpt>
      <trkpt lat="39.558468" lon="-84.746969">
        <ele>288.057462</ele>
        <time>2024-09-15T09:00:15.000Z</time>
      </trkpt>
      <trkpt lat="39.558834" lon="-84.747215">
        <ele>288.360293</ele>
        <time>2024-09-15T09:00:20.000Z</time>
      </trkpt>
      <trkpt lat="39.559259" lon="-84.747368">
        <ele>288.546729</ele>
        <time>2024-09-15T09:00:25.000Z</time>
      </trkpt>
      <trkpt lat="39.55986" lon="-84.747459">
        <ele>288.760086</ele>
        <time>2024-09-15T09:00:32.000Z</time>
      </trkpt>
      <trkpt lat="39.560378" lon="-84.747653">
        <ele>288.947875</ele>
        <time>2024-09-15T09:00:38.000Z</time>
      </trkpt>
      <trkpt lat="39.56074" lon="-84.747911">
        <ele>289.080969</ele>
        <time>2024-09-15T09:00:43.000Z</time>
      </trkpt>
      <trkpt lat="39.560907" lon="-84.748092">
        <ele>289.127505</ele>
        <time>2024-09-15T09:00:45.000Z</time>
      </trkpt>
      <trkpt lat="39.561163" lon="-84.74847">
        <ele>289.215193</ele>
        <time>2024-09-15T09:00:49.000Z</time>
      </trkpt>
      <trkpt lat="39.561378" lon="-84.748934">
        <ele>289.311847</ele>
        <time>2024-09-15T09:00:54.000Z</time>
      </trkpt>
      <trkpt lat="39.561836" lon="-84.749441">
        <ele>289.448144</ele>
        <time>2024-09-15T09:01:01.000Z</time>
      </trkpt>
      <trkpt lat="39.562054" lon="-84.749582">
        <ele>289.410012</ele>
        <time>2024-09-15T09:01:04.000Z</time>
      </trkpt>
      <trkpt lat="39.562537" lon="-84.749707">
        <ele>289.282064</ele>
        <time>2024-09-15T09:01:09.000Z</time>
      </trkpt>
      <trkpt lat="39.563591" lon="-84.749962">
        <ele>289.004671</ele>
        <time>2024-09-15T09:01:21.000Z</time>
      </trkpt>
      <trkpt lat="39.564561" lon="-84.750069">
        <ele>288.645284</ele>
        <time>2024-09-15T09:01:32.000Z</time>
      </trkpt>
      <trkpt lat="39.564856" lon="-84.750214">
        <ele>288.525947</ele>
        <time>2024-09-15T09:01:36.000Z</time>
      </trkpt>
      <trkpt lat="39.565436" lon="-84.750777">
        <ele>288.170301</ele>
        <time>2024-09-15T09:01:44.000Z</time>
      </trkpt>
      <trkpt lat="39.565652" lon="-84.751094">
        <ele>287.872141</ele>
        <time>2024-09-15T09:01:48.000Z</time>
      </trkpt>
      <trkpt lat="39.565907" lon="-84.751613">
        <ele>287.452898</ele>
        <time>2024-09-15T09:01:53.000Z</time>
      </trkpt>
      <trkpt lat="39.566185" lon="-84.751877">
        <ele>287.145279</ele>
        <time>2024-09-15T09:01:57.000Z</time>
      </trkpt>
      <trkpt lat="39.566542" lon="-84.751987">
        <ele>286.821088</ele>
        <time>2024-09-15T09:02:01.000Z</time>
      </trkpt>
      <trkpt lat="39.567077" lon="-84.751821">
        <ele>286.617202</ele>
        <time>2024-09-15T09:02:07.000Z</time>
      </trkpt>
      <trkpt lat="39.567385" lon="-84.75182">
        <ele>286.545384</ele>
        <time>2024-09-15T09:02:10.000Z</time>
      </trkpt>
      <trkpt lat="39.567591" lon="-84.751916">
        <ele>286.491321</ele>
        <time>2024-09-15T09:02:12.000Z</time>
      </trkpt>
      <trkpt lat="39.567755" lon="-84.752094">
        <ele>286.440757</ele>
        <time>2024-09-15T09:02:14.000Z</time>
      </trkpt>
      <trkpt lat="39.567906" lon="-84.752306">
        <ele>286.391493</ele>
        <time>2024-09-15T09:02:16.000Z</time>
      </trkpt>
      <trkpt lat="39.567995" lon="-84.752609">
        <ele>286.332959</ele>
        <time>2024-09-15T09:02:19.000Z</time>
      </trkpt>
      <trkpt lat="39.567996" lon="-84.752891">
        <ele>286.418138</ele>
        <time>2024-09-15T09:02:21.000Z</time>
      </trkpt>
      <trkpt lat="39.567966" lon="-84.753143">
        <ele>286.798497</ele>
        <time>2024-09-15T09:02:23.000Z</time>
      </trkpt>
      <trkpt lat="39.567771" lon="-84.753596">
        <ele>287.608755</ele>
        <time>2024-09-15T09:02:27.000Z</time>
      </trkpt>
      <trkpt lat="39.567635" lon="-84.754101">
        <ele>288.448966</ele>
        <time>2024-09-15T09:02:32.000Z</time>
      </trkpt>
      <trkpt lat="39.567422" lon="-84.756053">
        <ele>291.227814</ele>
        <time>2024-09-15T09:02:49.000Z</time>
      </trkpt>
      <trkpt lat="39.567507" lon="-84.756757">
        <ele>292.125788</ele>
        <time>2024-09-15T09:02:55.000Z</time>
      </trkpt>
      <trkpt lat="39.567731" lon="-84.757291">
        <ele>292.891777</ele>
        <time>2024-09-15T09:03:00.000Z</time>
      </trkpt>
      <trkpt lat="39.567836" lon="-84.757855">
        <ele>292.478673</ele>
        <time>2024-09-15T09:03:05.000Z</time>
      </trkpt>
      <trkpt lat="39.568035" lon="-84.759394">
        <ele>291.324993</ele>
        <time>2024-09-15T09:03:18.000Z</time>
      </trkpt>
      <trkpt lat="39.568077" lon="-84.759688">
        <ele>291.030517</ele>
        <time>2024-09-15T09:03:21.000Z</time>
      </trkpt>
      <trkpt lat="39.568261" lon="-84.760477">
        <ele>289.86349</ele>
        <time>2024-09-15T09:03:28.000Z</time>
      </trkpt>
      <trkpt lat="39.568397" lon="-84.760897">
        <ele>289.211256</ele>
        <time>2024-09-15T09:03:32.000Z</time>
      </trkpt>
      <trkpt lat="39.568702" lon="-84.761475">
        <ele>288.210678</ele>
        <time>2024-09-15T09:03:38.000Z</time>
      </trkpt>
      <trkpt lat="39.56891" lon="-84.76174">
        <ele>287.830659</ele>
        <time>2024-09-15T09:03:41.000Z</time>
      </trkpt>
      <trkpt lat="39.569372" lon="-84.762096">
        <ele>287.6759</ele>
        <time>2024-09-15T09:03:47.000Z</time>
      </trkpt>
      <trkpt lat="39.569773" lon="-84.762275">
        <ele>287.551696</ele>
        <time>2024-09-15T09:03:52.000Z</time>
      </trkpt>
      <trkpt lat="39.570121" lon="-84.762338">
        <ele>287.451638</ele>
        <time>2024-09-15T09:03:56.000Z</time>
      </trkpt>
      <trkpt lat="39.570342" lon="-84.762306">
        <ele>287.386942</ele>
        <time>2024-09-15T09:03:58.000Z</time>
      </trkpt>
      <trkpt lat="39.570844" lon="-84.762075">
        <ele>287.443562</ele>
        <time>2024-09-15T09:04:04.000Z</time>
      </trkpt>
      <trkpt lat="39.571127" lon="-84.762042">
        <ele>287.524809</ele>
        <time>2024-09-15T09:04:07.000Z</time>
      </trkpt>
      <trkpt lat="39.571869" lon="-84.76233">
        <ele>287.739275</ele>
        <time>2024-09-15T09:04:16.000Z</time>
      </trkpt>
      <trkpt lat="39.572361" lon="-84.762396">
        <ele>287.795513</ele>
        <time>2024-09-15T09:04:21.000Z</time>
      </trkpt>
      <trkpt lat="39.572687" lon="-84.762448">
        <ele>287.691244</ele>
        <time>2024-09-15T09:04:25.000Z</time>
      </trkpt>
      <trkpt lat="39.573597" lon="-84.762115">
        <ele>287.373388</ele>
        <time>2024-09-15T09:04:36.000Z</time>
      </trkpt>
      <trkpt lat="39.574295" lon="-84.76214">
        <ele>287.195697</ele>
        <time>2024-09-15T09:04:44.000Z</time>
      </trkpt>
      <trkpt lat="39.57434" lon="-84.762137">
        <ele>287.189661</ele>
        <time>2024-09-15T09:04:45.000Z</time>
      </trkpt>
      <trkpt lat="39.574658" lon="-84.762029">
        <ele>287.136673</ele>
        <time>2024-09-15T09:04:49.000Z</time>
      </trkpt>
      <trkpt lat="39.574965" lon="-84.761965">
        <ele>287.089398</ele>
        <time>2024-09-15T09:04:52.000Z</time>
      </trkpt>
      <trkpt lat="39.575513" lon="-84.762153">
        <ele>287.000607</ele>
        <time>2024-09-15T09:04:58.000Z</time>
      </trkpt>
      <trkpt lat="39.575768" lon="-84.762153">
        <ele>286.96187</ele>
        <time>2024-09-15T09:05:01.000Z</time>
      </trkpt>
      <trkpt lat="39.5764" lon="-84.76191">
        <ele>287.501337</ele>
        <time>2024-09-15T09:05:08.000Z</time>
      </trkpt>
      <trkpt lat="39.576898" lon="-84.761847">
        <ele>287.899587</ele>
        <time>2024-09-15T09:05:14.000Z</time>
      </trkpt>
      <trkpt lat="39.577125" lon="-84.76196">
        <ele>288.092526</ele>
        <time>2024-09-15T09:05:17.000Z</time>
      </trkpt>
      <trkpt lat="39.577372" lon="-84.762442">
        <ele>288.421985</ele>
        <time>2024-09-15T09:05:22.000Z</time>
      </trkpt>
      <trkpt lat="39.577575" lon="-84.763102">
        <ele>288.530452</ele>
        <time>2024-09-15T09:05:28.000Z</time>
      </trkpt>
      <trkpt lat="39.577715" lon="-84.76334">
        <ele>288.577223</ele>
        <time>2024-09-15T09:05:31.000Z</time>
      </trkpt>
      <trkpt lat="39.577944" lon="-84.763511">
        <ele>288.629533</ele>
        <time>2024-09-15T09:05:34.000Z</time>
      </trkpt>
      <trkpt lat="39.578159" lon="-84.763592">
        <ele>288.675323</ele>
        <time>2024-09-15T09:05:36.000Z</time>
      </trkpt>
      <trkpt lat="39.578758" lon="-84.763547">
        <ele>288.514457</ele>
        <time>2024-09-15T09:05:43.000Z</time>
      </trkpt>
      <trkpt lat="39.578978" lon="-84.763853">
        <ele>287.939722</ele>
        <time>2024-09-15T09:05:47.000Z</time>
      </trkpt>
      <trkpt lat="39.5791" lon="-84.764351">
        <ele>287.153273</ele>
        <time>2024-09-15T09:05:51.000Z</time>
      </trkpt>
      <trkpt lat="39.579442" lon="-84.765033">
        <ele>286.002226</ele>
        <time>2024-09-15T09:05:58.000Z</time>
      </trkpt>
      <trkpt lat="39.579571" lon="-84.765446">
        <ele>285.289823</ele>
        <time>2024-09-15T09:06:02.000Z</time>
      </trkpt>
      <trkpt lat="39.579729" lon="-84.76563">
        <ele>284.285393</ele>
        <time>2024-09-15T09:06:04.000Z</time>
      </trkpt>
      <trkpt lat="39.579875" lon="-84.765632">
        <ele>283.50076</ele>
        <time>2024-09-15T09:06:06.000Z</time>
      </trkpt>
      <trkpt lat="39.580099" lon="-84.765458">
        <ele>282.260472</ele>
        <time>2024-09-15T09:06:09.000Z</time>
      </trkpt>
      <trkpt lat="39.580228" lon="-84.765276">
        <ele>281.343315</ele>
        <time>2024-09-15T09:06:11.000Z</time>
      </trkpt>
      <trkpt lat="39.580521" lon="-84.764602">
        <ele>278.454756</ele>
        <time>2024-09-15T09:06:18.000Z</time>
      </trkpt>
      <trkpt lat="39.580642" lon="-84.764443">
        <ele>277.593826</ele>
        <time>2024-09-15T09:06:20.000Z</time>
      </trkpt>
      <trkpt lat="39.580875" lon="-84.764239">
        <ele>276.118273</ele>
        <time>2024-09-15T09:06:23.000Z</time>
      </trkpt>
      <trkpt lat="39.581108" lon="-84.764181">
        <ele>274.86855</ele>
        <time>2024-09-15T09:06:26.000Z</time>
      </trkpt>
      <trkpt lat="39.581328" lon="-84.764255">
        <ele>273.600062</ele>
        <time>2024-09-15T09:06:29.000Z</time>
      </trkpt>
      <trkpt lat="39.581472" lon="-84.764352">
        <ele>272.76577</ele>
        <time>2024-09-15T09:06:31.000Z</time>
      </trkpt>
      <trkpt lat="39.581624" lon="-84.764603">
        <ele>271.402088</ele>
        <time>2024-09-15T09:06:34.000Z</time>
      </trkpt>
      <trkpt lat="39.581918" lon="-84.765069">
        <ele>268.818222</ele>
        <time>2024-09-15T09:06:39.000Z</time>
      </trkpt>
      <trkpt lat="39.582136" lon="-84.765183">
        <ele>267.548163</ele>
        <time>2024-09-15T09:06:42.000Z</time>
      </trkpt>
      <trkpt lat="39.582378" lon="-84.765196">
        <ele>266.621964</ele>
        <time>2024-09-15T09:06:45.000Z</time>
      </trkpt>
      <trkpt lat="39.583066" lon="-84.765083">
        <ele>265.537084</ele>
        <time>2024-09-15T09:06:53.000Z</time>
      </trkpt>
      <trkpt lat="39.583482" lon="-84.765224">
        <ele>264.835785</ele>
        <time>2024-09-15T09:06:58.000Z</time>
      </trkpt>
      <trkpt lat="39.583605" lon="-84.765374">
        <ele>264.57817</ele>
        <time>2024-09-15T09:07:00.000Z</time>
      </trkpt>
      <trkpt lat="39.583953" lon="-84.765753">
        <ele>263.953253</ele>
        <time>2024-09-15T09:07:05.000Z</time>
      </trkpt>
      <trkpt lat="39.585184" lon="-84.767211">
        <ele>264.302855</ele>
        <time>2024-09-15T09:07:24.000Z</time>
      </trkpt>
      <trkpt lat="39.585526" lon="-84.767637">
        <ele>264.218392</ele>
        <time>2024-09-15T09:07:29.000Z</time>
      </trkpt>
      <trkpt lat="39.585717" lon="-84.767858">
        <ele>264.148478</ele>
        <time>2024-09-15T09:07:32.000Z</time>
      </trkpt>
      <trkpt lat="39.585844" lon="-84.767959">
        <ele>264.109988</ele>
        <time>2024-09-15T09:07:34.000Z</time>
      </trkpt>
      <trkpt lat="39.585916" lon="-84.767973">
        <ele>264.092508</ele>
        <time>2024-09-15T09:07:35.000Z</time>
      </trkpt>
      <trkpt lat="39.58619" lon="-84.767919">
        <ele>264.020338</ele>
        <time>2024-09-15T09:07:38.000Z</time>
      </trkpt>
      <trkpt lat="39.586721" lon="-84.767835">
        <ele>263.880145</ele>
        <time>2024-09-15T09:07:44.000Z</time>
      </trkpt>
      <trkpt lat="39.586905" lon="-84.767763">
        <ele>263.910549</ele>
        <time>2024-09-15T09:07:46.000Z</time>
      </trkpt>
      <trkpt lat="39.587029" lon="-84.76769">
        <ele>264.004342</ele>
        <time>2024-09-15T09:07:48.000Z</time>
      </trkpt>
      <trkpt lat="39.587649" lon="-84.767297">
        <ele>264.515774</ele>
        <time>2024-09-15T09:07:56.000Z</time>
      </trkpt>
      <trkpt lat="39.588163" lon="-84.766736">
        <ele>265.005757</ele>
        <time>2024-09-15T09:08:03.000Z</time>
      </trkpt>
      <trkpt lat="39.588506" lon="-84.766176">
        <ele>265.908754</ele>
        <time>2024-09-15T09:08:09.000Z</time>
      </trkpt>
      <trkpt lat="39.589016" lon="-84.764907">
        <ele>268.385211</ele>
        <time>2024-09-15T09:08:21.000Z</time>
      </trkpt>
      <trkpt lat="39.589243" lon="-84.764631">
        <ele>269.104695</ele>
        <time>2024-09-15T09:08:24.000Z</time>
      </trkpt>
      <trkpt lat="39.589625" lon="-84.764352">
        <ele>270.871429</ele>
        <time>2024-09-15T09:08:29.000Z</time>
      </trkpt>
      <trkpt lat="39.59034" lon="-84.764149">
        <ele>273.981614</ele>
        <time>2024-09-15T09:08:37.000Z</time>
      </trkpt>
      <trkpt lat="39.590826" lon="-84.763898">
        <ele>276.239889</ele>
        <time>2024-09-15T09:08:43.000Z</time>
      </trkpt>
      <trkpt lat="39.591131" lon="-84.763703">
        <ele>277.915187</ele>
        <time>2024-09-15T09:08:47.000Z</time>
      </trkpt>
      <trkpt lat="39.591604" lon="-84.763143">
        <ele>281.406485</ele>
        <time>2024-09-15T09:08:54.000Z</time>
      </trkpt>
      <trkpt lat="39.592129" lon="-84.76212">
        <ele>286.567435</ele>
        <time>2024-09-15T09:09:05.000Z</time>
      </trkpt>
      <trkpt lat="39.592349" lon="-84.761837">
        <ele>287.075842</ele>
        <time>2024-09-15T09:09:08.000Z</time>
      </trkpt>
      <trkpt lat="39.592665" lon="-84.761541">
        <ele>287.512752</ele>
        <time>2024-09-15T09:09:12.000Z</time>
      </trkpt>
      <trkpt lat="39.592839" lon="-84.761277">
        <ele>287.82065</ele>
        <time>2024-09-15T09:09:15.000Z</time>
      </trkpt>
      <trkpt lat="39.592896" lon="-84.760489">
        <ele>288.520978</ele>
        <time>2024-09-15T09:09:22.000Z</time>
      </trkpt>
      <trkpt lat="39.592892" lon="-84.760343">
        <ele>288.654907</ele>
        <time>2024-09-15T09:09:23.000Z</time>
      </trkpt>
      <trkpt lat="39.592791" lon="-84.759696">
        <ele>287.051402</ele>
        <time>2024-09-15T09:09:29.000Z</time>
      </trkpt>
      <trkpt lat="39.592412" lon="-84.758507">
        <ele>282.133042</ele>
        <time>2024-09-15T09:09:40.000Z</time>
      </trkpt>
      <trkpt lat="39.592316" lon="-84.75798">
        <ele>280.11205</ele>
        <time>2024-09-15T09:09:45.000Z</time>
      </trkpt>
      <trkpt lat="39.592241" lon="-84.756555">
        <ele>274.486953</ele>
        <time>2024-09-15T09:09:57.000Z</time>
      </trkpt>
      <trkpt lat="39.592166" lon="-84.756119">
        <ele>272.736811</ele>
        <time>2024-09-15T09:10:01.000Z</time>
      </trkpt>
      <trkpt lat="39.592117" lon="-84.756012">
        <ele>272.174584</ele>
        <time>2024-09-15T09:10:02.000Z</time>
      </trkpt>
      <trkpt lat="39.591921" lon="-84.755817">
        <ele>270.96048</ele>
        <time>2024-09-15T09:10:05.000Z</time>
      </trkpt>
      <trkpt lat="39.591371" lon="-84.755768">
        <ele>270.218365</ele>
        <time>2024-09-15T09:10:11.000Z</time>
      </trkpt>
      <trkpt lat="39.591098" lon="-84.755534">
        <ele>269.892094</ele>
        <time>2024-09-15T09:10:15.000Z</time>
      </trkpt>
      <trkpt lat="39.590689" lon="-84.754474">
        <ele>269.00608</ele>
        <time>2024-09-15T09:10:25.000Z</time>
      </trkpt>
      <trkpt lat="39.590492" lon="-84.753994">
        <ele>269.191759</ele>
        <time>2024-09-15T09:10:30.000Z</time>
      </trkpt>
      <trkpt lat="39.590305" lon="-84.753719">
        <ele>269.363966</ele>
        <time>2024-09-15T09:10:33.000Z</time>
      </trkpt>
      <trkpt lat="39.589683" lon="-84.753029">
        <ele>269.87005</ele>
        <time>2024-09-15T09:10:42.000Z</time>
      </trkpt>
      <trkpt lat="39.589393" lon="-84.752462">
        <ele>270.788348</ele>
        <time>2024-09-15T09:10:48.000Z</time>
      </trkpt>
      <trkpt lat="39.589317" lon="-84.751985">
        <ele>272.223053</ele>
        <time>2024-09-15T09:10:52.000Z</time>
      </trkpt>
      <trkpt lat="39.589301" lon="-84.75143">
        <ele>273.871449</ele>
        <time>2024-09-15T09:10:57.000Z</time>
      </trkpt>
      <trkpt lat="39.589323" lon="-84.751139">
        <ele>274.703403</ele>
        <time>2024-09-15T09:11:00.000Z</time>
      </trkpt>
      <trkpt lat="39.589881" lon="-84.74949">
        <ele>281.161101</ele>
        <time>2024-09-15T09:11:15.000Z</time>
      </trkpt>
      <trkpt lat="39.589933" lon="-84.748919">
        <ele>283.43287</ele>
        <time>2024-09-15T09:11:20.000Z</time>
      </trkpt>
      <trkpt lat="39.589921" lon="-84.747839">
        <ele>287.334856</ele>
        <time>2024-09-15T09:11:29.000Z</time>
      </trkpt>
      <trkpt lat="39.589976" lon="-84.747351">
        <ele>288.638531</ele>
        <time>2024-09-15T09:11:33.000Z</time>
      </trkpt>
      <trkpt lat="39.589922" lon="-84.746573">
        <ele>290.811377</ele>
        <time>2024-09-15T09:11:40.000Z</time>
      </trkpt>
      <trkpt lat="39.589788" lon="-84.746147">
        <ele>292.041349</ele>
        <time>2024-09-15T09:11:44.000Z</time>
      </trkpt>
      <trkpt lat="39.589423" lon="-84.745285">
        <ele>294.049575</ele>
        <time>2024-09-15T09:11:52.000Z</time>
      </trkpt>
      <trkpt lat="39.588704" lon="-84.744293">
        <ele>296.589075</ele>
        <time>2024-09-15T09:12:04.000Z</time>
      </trkpt>
      <trkpt lat="39.588183" lon="-84.743843">
        <ele>297.617561</ele>
        <time>2024-09-15T09:12:11.000Z</time>
      </trkpt>
      <trkpt lat="39.58756" lon="-84.743443">
        <ele>298.558034</ele>
        <time>2024-09-15T09:12:19.000Z</time>
      </trkpt>
      <trkpt lat="39.5868" lon="-84.743196">
        <ele>299.480647</ele>
        <time>2024-09-15T09:12:28.000Z</time>
      </trkpt>
      <trkpt lat="39.584961" lon="-84.743126">
        <ele>300.036015</ele>
        <time>2024-09-15T09:12:48.000Z</time>
      </trkpt>
      <trkpt lat="39.583264" lon="-84.743044">
        <ele>299.72713</ele>
        <time>2024-09-15T09:13:07.000Z</time>
      </trkpt>
      <trkpt lat="39.582322" lon="-84.742865">
        <ele>299.57516</ele>
        <time>2024-09-15T09:13:18.000Z</time>
      </trkpt>
      <trkpt lat="39.581276" lon="-84.74241">
        <ele>299.489268</ele>
        <time>2024-09-15T09:13:30.000Z</time>
      </trkpt>
      <trkpt lat="39.580322" lon="-84.741766">
        <ele>299.595896</ele>
        <time>2024-09-15T09:13:42.000Z</time>
      </trkpt>
      <trkpt lat="39.579652" lon="-84.741097">
        <ele>299.533862</ele>
        <time>2024-09-15T09:13:51.000Z</time>
      </trkpt>
      <trkpt lat="39.579397" lon="-84.740599">
        <ele>299.435402</ele>
        <time>2024-09-15T09:13:56.000Z</time>
      </trkpt>
      <trkpt lat="39.579296" lon="-84.740226">
        <ele>299.366901</ele>
        <time>2024-09-15T09:13:59.000Z</time>
      </trkpt>
      <trkpt lat="39.579162" lon="-84.739094">
        <ele>299.008436</ele>
        <time>2024-09-15T09:14:09.000Z</time>
      </trkpt>
      <trkpt lat="39.57904" lon="-84.73867">
        <ele>298.74492</ele>
        <time>2024-09-15T09:14:13.000Z</time>
      </trkpt>
      <trkpt lat="39.578912" lon="-84.738358">
        <ele>298.543439</ele>
        <time>2024-09-15T09:14:16.000Z</time>
      </trkpt>
      <trkpt lat="39.578404" lon="-84.737638">
        <ele>297.978774</ele>
        <time>2024-09-15T09:14:24.000Z</time>
      </trkpt>
      <trkpt lat="39.577821" lon="-84.736558">
        <ele>297.646158</ele>
        <time>2024-09-15T09:14:35.000Z</time>
      </trkpt>
      <trkpt lat="39.577363" lon="-84.735853">
        <ele>297.455997</ele>
        <time>2024-09-15T09:14:43.000Z</time>
      </trkpt>
      <trkpt lat="39.577157" lon="-84.73524">
        <ele>297.683904</ele>
        <time>2024-09-15T09:14:49.000Z</time>
      </trkpt>
      <trkpt lat="39.577124" lon="-84.734952">
        <ele>297.880089</ele>
        <time>2024-09-15T09:14:51.000Z</time>
      </trkpt>
      <trkpt lat="39.577194" lon="-84.734395">
        <ele>298.2502</ele>
        <time>2024-09-15T09:14:56.000Z</time>
      </trkpt>
      <trkpt lat="39.577218" lon="-84.734259">
        <ele>298.339376</ele>
        <time>2024-09-15T09:14:57.000Z</time>
      </trkpt>
      <trkpt lat="39.577395" lon="-84.733408">
        <ele>298.914682</ele>
        <time>2024-09-15T09:15:05.000Z</time>
      </trkpt>
      <trkpt lat="39.577786" lon="-84.732239">
        <ele>300.001298</ele>
        <time>2024-09-15T09:15:16.000Z</time>
      </trkpt>
      <trkpt lat="39.577912" lon="-84.731889">
        <ele>300.332672</ele>
        <time>2024-09-15T09:15:19.000Z</time>
      </trkpt>
      <trkpt lat="39.57797" lon="-84.73153">
        <ele>300.65803</ele>
        <time>2024-09-15T09:15:22.000Z</time>
      </trkpt>
      <trkpt lat="39.577961" lon="-84.731127">
        <ele>301.005929</ele>
        <time>2024-09-15T09:15:25.000Z</time>
      </trkpt>
      <trkpt lat="39.577845" lon="-84.73062">
        <ele>301.507868</ele>
        <time>2024-09-15T09:15:30.000Z</time>
      </trkpt>
      <trkpt lat="39.577551" lon="-84.729932">
        <ele>302.27099</ele>
        <time>2024-09-15T09:15:37.000Z</time>
      </trkpt>
      <trkpt lat="39.577341" lon="-84.729475">
        <ele>302.774446</ele>
        <time>2024-09-15T09:15:42.000Z</time>
      </trkpt>
      <trkpt lat="39.577223" lon="-84.72905">
        <ele>303.21951</ele>
        <time>2024-09-15T09:15:46.000Z</time>
      </trkpt>
      <trkpt lat="39.577124" lon="-84.728293">
        <ele>304.368147</ele>
        <time>2024-09-15T09:15:53.000Z</time>
      </trkpt>
      <trkpt lat="39.576992" lon="-84.7278">
        <ele>305.129525</ele>
        <time>2024-09-15T09:15:57.000Z</time>
      </trkpt>
      <trkpt lat="39.576672" lon="-84.727294">
        <ele>306.109849</ele>
        <time>2024-09-15T09:16:03.000Z</time>
      </trkpt>
      <trkpt lat="39.576647" lon="-84.7273">
        <ele>306.13818</ele>
        <time>2024-09-15T09:16:03.000Z</time>
      </trkpt>
      <trkpt lat="39.576369" lon="-84.72703">
        <ele>306.631266</ele>
        <time>2024-09-15T09:16:07.000Z</time>
      </trkpt>
      <trkpt lat="39.576081" lon="-84.726854">
        <ele>306.587882</ele>
        <time>2024-09-15T09:16:11.000Z</time>
      </trkpt>
      <trkpt lat="39.575721" lon="-84.726766">
        <ele>306.537237</ele>
        <time>2024-09-15T09:16:15.000Z</time>
      </trkpt>
      <trkpt lat="39.574868" lon="-84.726757">
        <ele>306.416044</ele>
        <time>2024-09-15T09:16:24.000Z</time>
      </trkpt>
      <trkpt lat="39.574018" lon="-84.726804">
        <ele>304.839343</ele>
        <time>2024-09-15T09:16:33.000Z</time>
      </trkpt>
      <trkpt lat="39.573545" lon="-84.726971">
        <ele>303.688298</ele>
        <time>2024-09-15T09:16:38.000Z</time>
      </trkpt>
      <trkpt lat="39.572623" lon="-84.726814">
        <ele>301.960259</ele>
        <time>2024-09-15T09:16:48.000Z</time>
      </trkpt>
      <trkpt lat="39.572293" lon="-84.726811">
        <ele>301.655918</ele>
        <time>2024-09-15T09:16:52.000Z</time>
      </trkpt>
      <trkpt lat="39.571896" lon="-84.726884">
        <ele>301.29754</ele>
        <time>2024-09-15T09:16:56.000Z</time>
      </trkpt>
      <trkpt lat="39.571278" lon="-84.727142">
        <ele>300.722619</ele>
        <time>2024-09-15T09:17:03.000Z</time>
      </trkpt>
      <trkpt lat="39.570958" lon="-84.727213">
        <ele>300.746654</ele>
        <time>2024-09-15T09:17:07.000Z</time>
      </trkpt>
      <trkpt lat="39.569486" lon="-84.727336">
        <ele>301.753395</ele>
        <time>2024-09-15T09:17:23.000Z</time>
      </trkpt>
      <trkpt lat="39.569077" lon="-84.727442">
        <ele>301.950998</ele>
        <time>2024-09-15T09:17:28.000Z</time>
      </trkpt>
      <trkpt lat="39.567681" lon="-84.727512">
        <ele>302.493517</ele>
        <time>2024-09-15T09:17:44.000Z</time>
      </trkpt>
      <trkpt lat="39.56731" lon="-84.727669">
        <ele>302.497301</ele>
        <time>2024-09-15T09:17:48.000Z</time>
      </trkpt>
      <trkpt lat="39.567096" lon="-84.727978">
        <ele>302.450245</ele>
        <time>2024-09-15T09:17:52.000Z</time>
      </trkpt>
      <trkpt lat="39.566982" lon="-84.728404">
        <ele>302.399944</ele>
        <time>2024-09-15T09:17:56.000Z</time>
      </trkpt>
      <trkpt lat="39.566973" lon="-84.728941">
        <ele>302.33848</ele>
        <time>2024-09-15T09:18:01.000Z</time>
      </trkpt>
      <trkpt lat="39.567084" lon="-84.729817">
        <ele>302.101877</ele>
        <time>2024-09-15T09:18:09.000Z</time>
      </trkpt>
      <trkpt lat="39.566994" lon="-84.730204">
        <ele>301.880364</ele>
        <time>2024-09-15T09:18:12.000Z</time>
      </trkpt>
      <trkpt lat="39.5668" lon="-84.73054">
        <ele>301.656934</ele>
        <time>2024-09-15T09:18:16.000Z</time>
      </trkpt>
      <trkpt lat="39.566363" lon="-84.730841">
        <ele>301.312273</ele>
        <time>2024-09-15T09:18:22.000Z</time>
      </trkpt>
      <trkpt lat="39.56614" lon="-84.731076">
        <ele>301.110404</ele>
        <time>2024-09-15T09:18:25.000Z</time>
      </trkpt>
      <trkpt lat="39.5656" lon="-84.732697">
        <ele>300.053794</ele>
        <time>2024-09-15T09:18:40.000Z</time>
      </trkpt>
      <trkpt lat="39.565461" lon="-84.733015">
        <ele>299.835941</ele>
        <time>2024-09-15T09:18:43.000Z</time>
      </trkpt>
      <trkpt lat="39.56508" lon="-84.733307">
        <ele>299.490377</ele>
        <time>2024-09-15T09:18:48.000Z</time>
      </trkpt>
      <trkpt lat="39.564776" lon="-84.733431">
        <ele>299.217912</ele>
        <time>2024-09-15T09:18:52.000Z</time>
      </trkpt>
      <trkpt lat="39.563655" lon="-84.733395">
        <ele>298.274391</ele>
        <time>2024-09-15T09:19:04.000Z</time>
      </trkpt>
      <trkpt lat="39.562772" lon="-84.733604">
        <ele>296.991891</ele>
        <time>2024-09-15T09:19:14.000Z</time>
      </trkpt>
      <trkpt lat="39.560937" lon="-84.733466">
        <ele>293.873312</ele>
        <time>2024-09-15T09:19:34.000Z</time>
      </trkpt>
      <trkpt lat="39.560617" lon="-84.733274">
        <ele>293.241266</ele>
        <time>2024-09-15T09:19:38.000Z</time>
      </trkpt>
      <trkpt lat="39.560066" lon="-84.732292">
        <ele>291.161406</ele>
        <time>2024-09-15T09:19:48.000Z</time>
      </trkpt>
      <trkpt lat="39.559885" lon="-84.73208">
        <ele>290.316076</ele>
        <time>2024-09-15T09:19:51.000Z</time>
      </trkpt>
      <trkpt lat="39.559649" lon="-84.731941">
        <ele>289.455728</ele>
        <time>2024-09-15T09:19:54.000Z</time>
      </trkpt>
      <trkpt lat="39.55873" lon="-84.731735">
        <ele>286.245274</ele>
        <time>2024-09-15T09:20:04.000Z</time>
      </trkpt>
      <trkpt lat="39.557648" lon="-84.731352">
        <ele>281.937347</ele>
        <time>2024-09-15T09:20:16.000Z</time>
      </trkpt>
      <trkpt lat="39.555864" lon="-84.731264">
        <ele>275.714423</ele>
        <time>2024-09-15T09:20:36.000Z</time>
      </trkpt>
      <trkpt lat="39.554931" lon="-84.731757">
        <ele>272.043577</ele>
        <time>2024-09-15T09:20:47.000Z</time>
      </trkpt>
      <trkpt lat="39.554575" lon="-84.732034">
        <ele>269.580027</ele>
        <time>2024-09-15T09:20:52.000Z</time>
      </trkpt>
      <trkpt lat="39.554277" lon="-84.732423">
        <ele>267.17253</ele>
        <time>2024-09-15T09:20:57.000Z</time>
      </trkpt>
      <trkpt lat="39.55353" lon="-84.733919">
        <ele>259.636114</ele>
        <time>2024-09-15T09:21:12.000Z</time>
      </trkpt>
      <trkpt lat="39.553489" lon="-84.734383">
        <ele>257.837531</ele>
        <time>2024-09-15T09:21:16.000Z</time>
      </trkpt>
      <trkpt lat="39.553593" lon="-84.73483">
        <ele>256.03994</ele>
        <time>2024-09-15T09:21:20.000Z</time>
      </trkpt>
      <trkpt lat="39.553691" lon="-84.735278">
        <ele>254.207598</ele>
        <time>2024-09-15T09:21:24.000Z</time>
      </trkpt>
      <trkpt lat="39.553767" lon="-84.735561">
        <ele>253.560402</ele>
        <time>2024-09-15T09:21:27.000Z</time>
      </trkpt>
      <trkpt lat="39.554193" lon="-84.737611">
        <ele>253.644617</ele>
        <time>2024-09-15T09:21:45.000Z</time>
      </trkpt>
      <trkpt lat="39.554487" lon="-84.73861">
        <ele>256.933881</ele>
        <time>2024-09-15T09:21:54.000Z</time>
      </trkpt>
      <trkpt lat="39.554598" lon="-84.739435">
        <ele>259.765751</ele>
        <time>2024-09-15T09:22:01.000Z</time>
      </trkpt>
      <trkpt lat="39.554777" lon="-84.742259">
        <ele>274.620512</ele>
        <time>2024-09-15T09:22:25.000Z</time>
      </trkpt>
      <trkpt lat="39.554969" lon="-84.743063">
        <ele>277.75181</ele>
        <time>2024-09-15T09:22:32.000Z</time>
      </trkpt>
      <trkpt lat="39.555371" lon="-84.744374">
        <ele>283.116166</ele>
        <time>2024-09-15T09:22:44.000Z</time>
      </trkpt>
      <trkpt lat="39.555652" lon="-84.74481">
        <ele>284.052531</ele>
        <time>2024-09-15T09:22:49.000Z</time>
      </trkpt>
      <trkpt lat="39.555866" lon="-84.744979">
        <ele>284.485648</ele>
        <time>2024-09-15T09:22:52.000Z</time>
      </trkpt>
      <trkpt lat="39.556159" lon="-84.745172">
        <ele>285.010636</ele>
        <time>2024-09-15T09:22:56.000Z</time>
      </trkpt>
      <trkpt lat="39.557491" lon="-84.74566">
        <ele>286.925239</ele>
        <time>2024-09-15T09:23:11.000Z</time>
      </trkpt>
      <trkpt lat="39.557798" lon="-84.74603">
        <ele>287.292676</ele>
        <time>2024-09-15T09:23:16.000Z</time>
      </trkpt>
      <trkpt lat="39.558259" lon="-84.746795">
        <ele>287.942427</ele>
        <time>2024-09-15T09:23:24.000Z</time>
      </trkpt>
      <trkpt lat="39.558481" lon="-84.746962">
        <ele>288.099386</ele>
        <time>2024-09-15T09:23:27.000Z</time>
      </trkpt>
      <trkpt lat="39.558831" lon="-84.747223">
        <ele>288.290967</ele>
        <time>2024-09-15T09:23:31.000Z</time>
      </trkpt>
      <trkpt lat="39.559261" lon="-84.747366">
        <ele>288.49954</ele>
        <time>2024-09-15T09:23:36.000Z</time>
      </trkpt>
      <trkpt lat="39.559868" lon="-84.747462">
        <ele>288.782735</ele>
        <time>2024-09-15T09:23:43.000Z</time>
      </trkpt>
      <trkpt lat="39.560362" lon="-84.747655">
        <ele>288.963543</ele>
        <time>2024-09-15T09:23:49.000Z</time>
      </trkpt>
      <trkpt lat="39.560738" lon="-84.747911">
        <ele>289.080673</ele>
        <time>2024-09-15T09:23:54.000Z</time>
      </trkpt>
      <trkpt lat="39.5609" lon="-84.748076">
        <ele>289.137806</ele>
        <time>2024-09-15T09:23:56.000Z</time>
      </trkpt>
      <trkpt lat="39.561156" lon="-84.748462">
        <ele>289.245458</ele>
        <time>2024-09-15T09:24:00.000Z</time>
      </trkpt>
      <trkpt lat="39.561394" lon="-84.74893">
        <ele>289.36414</ele>
        <time>2024-09-15T09:24:05.000Z</time>
      </trkpt>
      <trkpt lat="39.561837" lon="-84.749447">
        <ele>289.330129</ele>
        <time>2024-09-15T09:24:12.000Z</time>
      </trkpt>
      <trkpt lat="39.562055" lon="-84.749582">
        <ele>289.316308</ele>
        <time>2024-09-15T09:24:15.000Z</time>
      </trkpt>
      <trkpt lat="39.562531" lon="-84.749712">
        <ele>289.288345</ele>
        <time>2024-09-15T09:24:20.000Z</time>
      </trkpt>
      <trkpt lat="39.563596" lon="-84.749958">
        <ele>289.028859</ele>
        <time>2024-09-15T09:24:32.000Z</time>
      </trkpt>
      <trkpt lat="39.564559" lon="-84.750077">
        <ele>288.661728</ele>
        <time>2024-09-15T09:24:43.000Z</time>
      </trkpt>
      <trkpt lat="39.564851" lon="-84.750223">
        <ele>288.515723</ele>
        <time>2024-09-15T09:24:46.000Z</time>
      </trkpt>
      <trkpt lat="39.56543" lon="-84.750779">
        <ele>288.054717</ele>
        <time>2024-09-15T09:24:54.000Z</time>
      </trkpt>
      <trkpt lat="39.565661" lon="-84.751093">
        <ele>287.840123</ele>
        <time>2024-09-15T09:24:58.000Z</time>
      </trkpt>
      <trkpt lat="39.565922" lon="-84.751609">
        <ele>287.53835</ele>
        <time>2024-09-15T09:25:03.000Z</time>
      </trkpt>
      <trkpt lat="39.566185" lon="-84.751878">
        <ele>287.287399</ele>
        <time>2024-09-15T09:25:07.000Z</time>
      </trkpt>
      <trkpt lat="39.566547" lon="-84.751985">
        <ele>286.991151</ele>
        <time>2024-09-15T09:25:11.000Z</time>
      </trkpt>
      <trkpt lat="39.567076" lon="-84.751832">
        <ele>286.55057</ele>
        <time>2024-09-15T09:25:17.000Z</time>
      </trkpt>
      <trkpt lat="39.567381" lon="-84.751832">
        <ele>286.300091</ele>
        <time>2024-09-15T09:25:20.000Z</time>
      </trkpt>
      <trkpt lat="39.567607" lon="-84.751905">
        <ele>286.111532</ele>
        <time>2024-09-15T09:25:23.000Z</time>
      </trkpt>
      <trkpt lat="39.567763" lon="-84.752091">
        <ele>286.010042</ele>
        <time>2024-09-15T09:25:25.000Z</time>
      </trkpt>
      <trkpt lat="39.567897" lon="-84.752316">
        <ele>286.286379</ele>
        <time>2024-09-15T09:25:27.000Z</time>
      </trkpt>
      <trkpt lat="39.567978" lon="-84.752608">
        <ele>286.614669</ele>
        <time>2024-09-15T09:25:30.000Z</time>
      </trkpt>
      <trkpt lat="39.56799" lon="-84.752901">
        <ele>286.897234</ele>
        <time>2024-09-15T09:25:33.000Z</time>
      </trkpt>
      <trkpt lat="39.567954" lon="-84.753129">
        <ele>287.143463</ele>
        <time>2024-09-15T09:25:35.000Z</time>
      </trkpt>
      <trkpt lat="39.567782" lon="-84.753594">
        <ele>287.668002</ele>
        <time>2024-09-15T09:25:39.000Z</time>
      </trkpt>
      <trkpt lat="39.567633" lon="-84.754111">
        <ele>288.211932</ele>
        <time>2024-09-15T09:25:44.000Z</time>
      </trkpt>
      <trkpt lat="39.567418" lon="-84.756065">
        <ele>291.550339</ele>
        <time>2024-09-15T09:26:01.000Z</time>
      </trkpt>
      <trkpt lat="39.567503" lon="-84.756757">
        <ele>292.342874</ele>
        <time>2024-09-15T09:26:07.000Z</time>
      </trkpt>
      <trkpt lat="39.567734" lon="-84.757297">
        <ele>292.310351</ele>
        <time>2024-09-15T09:26:12.000Z</time>
      </trkpt>
      <trkpt lat="39.567829" lon="-84.757849">
        <ele>292.279232</ele>
        <time>2024-09-15T09:26:17.000Z</time>
      </trkpt>
      <trkpt lat="39.568031" lon="-84.759397">
        <ele>291.284608</ele>
        <time>2024-09-15T09:26:30.000Z</time>
      </trkpt>
      <trkpt lat="39.568075" lon="-84.759682">
        <ele>290.852265</ele>
        <time>2024-09-15T09:26:32.000Z</time>
      </trkpt>
      <trkpt lat="39.56825" lon="-84.760483">
        <ele>289.670171</ele>
        <time>2024-09-15T09:26:39.000Z</time>
      </trkpt>
      <trkpt lat="39.568393" lon="-84.760903">
        <ele>289.009533</ele>
        <time>2024-09-15T09:26:43.000Z</time>
      </trkpt>
      <trkpt lat="39.568693" lon="-84.761477">
        <ele>288.444769</ele>
        <time>2024-09-15T09:26:49.000Z</time>
      </trkpt>
      <trkpt lat="39.56892" lon="-84.761748">
        <ele>288.173794</ele>
        <time>2024-09-15T09:26:52.000Z</time>
      </trkpt>
      <trkpt lat="39.569379" lon="-84.762112">
        <ele>287.689236</ele>
        <time>2024-09-15T09:26:58.000Z</time>
      </trkpt>
      <trkpt lat="39.569773" lon="-84.762286">
        <ele>287.300333</ele>
        <time>2024-09-15T09:27:03.000Z</time>
      </trkpt>
      <trkpt lat="39.570118" lon="-84.762335">
        <ele>287.316011</ele>
        <time>2024-09-15T09:27:07.000Z</time>
      </trkpt>
      <trkpt lat="39.570348" lon="-84.762304">
        <ele>287.379664</ele>
        <time>2024-09-15T09:27:10.000Z</time>
      </trkpt>
      <trkpt lat="39.570828" lon="-84.762082">
        <ele>287.52728</ele>
        <time>2024-09-15T09:27:16.000Z</time>
      </trkpt>
      <trkpt lat="39.571132" lon="-84.762043">
        <ele>287.610974</ele>
        <time>2024-09-15T09:27:19.000Z</time>
      </trkpt>
      <trkpt lat="39.571882" lon="-84.762322">
        <ele>287.715467</ele>
        <time>2024-09-15T09:27:28.000Z</time>
      </trkpt>
      <trkpt lat="39.572357" lon="-84.762391">
        <ele>287.658052</ele>
        <time>2024-09-15T09:27:33.000Z</time>
      </trkpt>
      <trkpt lat="39.57267" lon="-84.762442">
        <ele>287.621603</ele>
        <time>2024-09-15T09:27:37.000Z</time>
      </trkpt>
      <trkpt lat="39.573607" lon="-84.762118">
        <ele>287.429826</ele>
        <time>2024-09-15T09:27:48.000Z</time>
      </trkpt>
      <trkpt lat="39.574293" lon="-84.76214">
        <ele>287.134838</ele>
        <time>2024-09-15T09:27:56.000Z</time>
      </trkpt>
      <trkpt lat="39.57433" lon="-84.762125">
        <ele>287.118603</ele>
        <time>2024-09-15T09:27:56.000Z</time>
      </trkpt>
      <trkpt lat="39.574657" lon="-84.762015">
        <ele>286.975969</ele>
        <time>2024-09-15T09:28:00.000Z</time>
      </trkpt>
      <trkpt lat="39.574954" lon="-84.761965">
        <ele>286.848715</ele>
        <time>2024-09-15T09:28:03.000Z</time>
      </trkpt>
      <trkpt lat="39.57551" lon="-84.762157">
        <ele>286.079833</ele>
        <time>2024-09-15T09:28:09.000Z</time>
      </trkpt>
      <trkpt lat="39.575771" lon="-84.762151">
        <ele>285.63152</ele>
        <time>2024-09-15T09:28:12.000Z</time>
      </trkpt>
      <trkpt lat="39.576402" lon="-84.76192">
        <ele>284.458695</ele>
        <time>2024-09-15T09:28:19.000Z</time>
      </trkpt>
      <trkpt lat="39.576888" lon="-84.76184">
        <ele>283.536324</ele>
        <time>2024-09-15T09:28:24.000Z</time>
      </trkpt>
      <trkpt lat="39.576862" lon="-84.761321">
        <ele>281.725603</ele>
        <time>2024-09-15T09:28:28.000Z</time>
      </trkpt>
      <trkpt lat="39.576797" lon="-84.76106">
        <ele>280.79692</ele>
        <time>2024-09-15T09:28:30.000Z</time>
      </trkpt>
      <trkpt lat="39.576429" lon="-84.760254">
        <ele>277.560697</ele>
        <time>2024-09-15T09:28:38.000Z</time>
      </trkpt>
      <trkpt lat="39.576293" lon="-84.759682">
        <ele>275.498130726</ele>
        <time>2024-09-15T09:28:43.000Z</time>
      </trkpt>
      <trkpt lat="39.576189" lon="-84.7591">
        <ele>273.439557502</ele>
        <time>2024-09-15T09:28:48.000Z</time>
      </trkpt>
      <trkpt lat="39.575917" lon="-84.758903">
        <ele>272.046970401</ele>
        <time>2024-09-15T09:28:51.000Z</time>
      </trkpt>
      <trkpt lat="39.575707" lon="-84.758773">
        <ele>271.006795033</ele>
        <time>2024-09-15T09:28:54.000Z</time>
      </trkpt>
      <trkpt lat="39.575497" lon="-84.75865">
        <ele>269.976776076</ele>
        <time>2024-09-15T09:28:57.000Z</time>
      </trkpt>
      <trkpt lat="39.575289" lon="-84.75854">
        <ele>268.972649674</ele>
        <time>2024-09-15T09:28:59.000Z</time>
      </trkpt>
      <trkpt lat="39.575102" lon="-84.758437">
        <ele>268.064466307</ele>
        <time>2024-09-15T09:29:01.000Z</time>
      </trkpt>
      <trkpt lat="39.574894" lon="-84.758301">
        <ele>267.023211271</ele>
        <time>2024-09-15T09:29:04.000Z</time>
      </trkpt>
    </trkseg>
  </trk>
</gpx>

<!--
Performance optimized by W3 Total Cache. Learn more: https://www.boldgrid.com/w3-total-cache/?utm_source=w3tc&utm_medium=footer_comment&utm_campaign=free_plugin

Page Caching using Disk: Enhanced{w3tc_pagecache_reject_reason} 

Served from: www.aquabike.world @ 2026-05-10 11:40:36 by W3 Total Cache
-->